Observation data for Palo Duro Canyon State Park Floor on 08/13/2019      Previous  Date  Next       Current Mesonet Observations  Soil Data  Daily Summary Page  Observations in Plain Language
KPD2 130500Z 09012KT 25/18 A2999 RMK A01 T02520181  RH  065%=      5-min Rain = 0
KPD2 130501Z 12008G13KT 25/18 A2999 RMK A01 T02530180  RH  064%=      5-min Rain = 0
KPD2 130502Z 11009KT 25/18 A2999 RMK A01 T02540180  RH  064%=      5-min Rain = 0
KPD2 130503Z 11012G17KT 25/18 A2999 RMK A01 T02540180  RH  063%=      5-min Rain = 0
KPD2 130504Z 12009G14KT 26/18 A2999 RMK A01 T02550180  RH  063%=      5-min Rain = 0
KPD2 130505Z 11012G18KT 26/18 A2999 RMK A01 T02550180  RH  063%=      5-min Rain = 0
KPD2 130506Z 08010G15KT 26/18 A2999 RMK A01 T02550180  RH  063%=      5-min Rain = 0
KPD2 130507Z 13010G16KT 26/18 A2999 RMK A01 T02550180  RH  063%=      5-min Rain = 0
KPD2 130508Z 10007G12KT 26/18 A2999 RMK A01 T02550180  RH  063%=      5-min Rain = 0
KPD2 130509Z 10005G12KT 26/18 A2998 RMK A01 T02550180  RH  063%=      5-min Rain = 0
KPD2 130510Z 11011KT 26/18 A2998 RMK A01 T02550180  RH  063%=      5-min Rain = 0
KPD2 130511Z 10009G17KT 26/18 A2998 RMK A01 T02550180  RH  063%=      5-min Rain = 0
KPD2 130512Z 11006KT 26/18 A2998 RMK A01 T02550179  RH  063%=      5-min Rain = 0
KPD2 130513Z 12005KT 26/18 A2998 RMK A01 T02550179  RH  063%=      5-min Rain = 0
KPD2 130514Z 12007G12KT 26/18 A2998 RMK A01 T02550178  RH  062%=      5-min Rain = 0
KPD2 130515Z 12010KT 26/18 A2998 RMK A01 T02550178  RH  062%=      5-min Rain = 0
KPD2 130516Z 12011G17KT 26/18 A2998 RMK A01 T02560178  RH  062%=      5-min Rain = 0
KPD2 130517Z 12012G23KT 26/18 A2998 RMK A01 T02560178  RH  062%=      5-min Rain = 0
KPD2 130518Z 12010KT 26/18 A2998 RMK A01 T02570178  RH  062%=      5-min Rain = 0
KPD2 130519Z 12010KT 26/18 A2998 RMK A01 T02570179  RH  062%=      5-min Rain = 0
KPD2 130520Z 13007KT 26/18 A2998 RMK A01 T02570179  RH  062%=      5-min Rain = 0
KPD2 130521Z 15005KT 26/18 A2998 RMK A01 T02570179  RH  062%=      5-min Rain = 0
KPD2 130522Z 13007KT 26/18 A2998 RMK A01 T02570179  RH  062%=      5-min Rain = 0
KPD2 130523Z 13006KT 26/18 A2998 RMK A01 T02560180  RH  062%=      5-min Rain = 0
KPD2 130524Z 17005KT 26/18 A2998 RMK A01 T02560180  RH  063%=      5-min Rain = 0
KPD2 130525Z 15008KT 26/18 A2999 RMK A01 T02550179  RH  063%=      5-min Rain = 0
KPD2 130526Z 14006KT 26/18 A2999 RMK A01 T02550179  RH  063%=      5-min Rain = 0
KPD2 130527Z 14003KT 26/18 A2999 RMK A01 T02550179  RH  063%=      5-min Rain = 0
KPD2 130528Z 14005KT 26/18 A2999 RMK A01 T02550179  RH  063%=      5-min Rain = 0
KPD2 130529Z 14005KT 26/18 A2999 RMK A01 T02550179  RH  063%=      5-min Rain = 0
KPD2 130530Z 13007KT 26/18 A2999 RMK A01 T02550179  RH  063%=      5-min Rain = 0
KPD2 130531Z 13005KT 25/18 A2999 RMK A01 T02540178  RH  063%=      5-min Rain = 0
KPD2 130532Z 13005KT 26/18 A2999 RMK A01 T02550178  RH  063%=      5-min Rain = 0
KPD2 130533Z 13004KT 26/18 A2999 RMK A01 T02550178  RH  063%=      5-min Rain = 0
KPD2 130534Z 13005KT 26/18 A2999 RMK A01 T02550178  RH  063%=      5-min Rain = 0
KPD2 130535Z 16004KT 26/18 A2999 RMK A01 T02550178  RH  062%=      5-min Rain = 0
KPD2 130536Z 14003KT 26/18 A2999 RMK A01 T02550178  RH  062%=      5-min Rain = 0
KPD2 130537Z 13004KT 26/18 A2999 RMK A01 T02550178  RH  062%=      5-min Rain = 0
KPD2 130538Z 11004KT 26/18 A2999 RMK A01 T02550178  RH  062%=      5-min Rain = 0
KPD2 130539Z 12004G9KT 26/18 A2999 RMK A01 T02550178  RH  062%=      5-min Rain = 0
KPD2 130540Z 11006KT 26/18 A2999 RMK A01 T02550178  RH  062%=      5-min Rain = 0
KPD2 130541Z 10006G11KT 26/18 A2999 RMK A01 T02550178  RH  062%=      5-min Rain = 0
KPD2 130542Z 11006KT 26/18 A2999 RMK A01 T02560178  RH  062%=      5-min Rain = 0
KPD2 130543Z 12008KT 26/18 A2999 RMK A01 T02560179  RH  062%=      5-min Rain = 0
KPD2 130544Z 12010KT 26/18 A2999 RMK A01 T02570179  RH  062%=      5-min Rain = 0
KPD2 130545Z 12010KT 26/18 A2999 RMK A01 T02570180  RH  062%=      5-min Rain = 0
KPD2 130546Z 11007G13KT 26/18 A2999 RMK A01 T02570180  RH  062%=      5-min Rain = 0
KPD2 130547Z 11007KT 26/18 A2999 RMK A01 T02570180  RH  063%=      5-min Rain = 0
KPD2 130548Z 11007KT 26/18 A2999 RMK A01 T02570180  RH  063%=      5-min Rain = 0
KPD2 130549Z 12007G13KT 26/18 A2999 RMK A01 T02570181  RH  063%=      5-min Rain = 0
KPD2 130550Z 10009KT 26/18 A2999 RMK A01 T02570181  RH  063%=      5-min Rain = 0
KPD2 130551Z 10010KT 26/18 A2999 RMK A01 T02570181  RH  063%=      5-min Rain = 0
KPD2 130552Z 10007G12KT 26/18 A2999 RMK A01 T02560181  RH  063%=      5-min Rain = 0
KPD2 130553Z 09008KT 26/18 A2999 RMK A01 T02560181  RH  063%=      5-min Rain = 0
KPD2 130554Z 13006KT 26/18 A2999 RMK A01 T02560182  RH  064%=      5-min Rain = 0
KPD2 130555Z 13007G15KT 26/18 A2999 RMK A01 T02550182  RH  064%=      5-min Rain = 0
KPD2 130556Z 12010G15KT 26/18 A2999 RMK A01 T02550182  RH  064%=      5-min Rain = 0
KPD2 130557Z 13009G14KT 26/18 A2999 RMK A01 T02550182  RH  064%=      5-min Rain = 0
KPD2 130558Z 11009KT 25/18 A2999 RMK A01 T02540183  RH  064%=      5-min Rain = 0
KPD2 130559Z 13010G15KT 25/18 A2999 RMK A01 T02540183  RH  065%=      5-min Rain = 0
KPD2 130600Z 13011G16KT 25/18 A2999 RMK A01 T02540183  RH  065%=      5-min Rain = 0
KPD2 130601Z 13008KT 25/18 A2999 RMK A01 T02530183  RH  065%=      5-min Rain = 0
KPD2 130602Z 12009KT 25/18 A2999 RMK A01 T02530183  RH  065%=      5-min Rain = 0
KPD2 130603Z 13009KT 25/18 A2999 RMK A01 T02530183  RH  065%=      5-min Rain = 0
KPD2 130604Z 13008G13KT 25/18 A2999 RMK A01 T02520183  RH  065%=      5-min Rain = 0
KPD2 130605Z 13009KT 25/18 A2999 RMK A01 T02520183  RH  066%=      5-min Rain = 0
KPD2 130606Z 13010KT 25/18 A2999 RMK A01 T02510183  RH  066%=      5-min Rain = 0
KPD2 130607Z 13009KT 25/18 A2999 RMK A01 T02510183  RH  066%=      5-min Rain = 0
KPD2 130608Z 14009KT 25/18 A2999 RMK A01 T02500183  RH  066%=      5-min Rain = 0
KPD2 130609Z 15010KT 25/18 A2999 RMK A01 T02500183  RH  066%=      5-min Rain = 0
KPD2 130610Z 14009KT 25/18 A2999 RMK A01 T02500183  RH  066%=      5-min Rain = 0
KPD2 130611Z 14012KT 25/18 A2999 RMK A01 T02500183  RH  067%=      5-min Rain = 0
KPD2 130612Z 15011KT 25/18 A2999 RMK A01 T02500184  RH  067%=      5-min Rain = 0
KPD2 130613Z 14010KT 25/18 A2999 RMK A01 T02500184  RH  067%=      5-min Rain = 0
KPD2 130614Z 13010KT 25/18 A2999 RMK A01 T02500184  RH  067%=      5-min Rain = 0
KPD2 130615Z 13006KT 25/18 A2999 RMK A01 T02490184  RH  067%=      5-min Rain = 0
KPD2 130616Z 13009KT 25/18 A2999 RMK A01 T02490184  RH  067%=      5-min Rain = 0
KPD2 130617Z 12009KT 25/18 A2999 RMK A01 T02490184  RH  067%=      5-min Rain = 0
KPD2 130618Z 13010KT 25/18 A2999 RMK A01 T02490184  RH  067%=      5-min Rain = 0
KPD2 130619Z 13008KT 25/18 A2999 RMK A01 T02490184  RH  067%=      5-min Rain = 0
KPD2 130620Z 13009KT 25/18 A2999 RMK A01 T02490184  RH  067%=      5-min Rain = 0
KPD2 130621Z 13009KT 25/18 A2999 RMK A01 T02490184  RH  067%=      5-min Rain = 0
KPD2 130622Z 13010KT 25/19 A2999 RMK A01 T02490185  RH  067%=      5-min Rain = 0
KPD2 130623Z 12010KT 25/18 A2999 RMK A01 T02490184  RH  067%=      5-min Rain = 0
KPD2 130624Z 13008KT 25/18 A2999 RMK A01 T02490184  RH  067%=      5-min Rain = 0
KPD2 130625Z 13006KT 25/18 A2999 RMK A01 T02490184  RH  067%=      5-min Rain = 0
KPD2 130626Z 12005KT 25/18 A2999 RMK A01 T02490184  RH  067%=      5-min Rain = 0
KPD2 130627Z 13006KT 25/18 A2999 RMK A01 T02490184  RH  067%=      5-min Rain = 0
KPD2 130628Z 13006KT 25/18 A2999 RMK A01 T02490184  RH  067%=      5-min Rain = 0
KPD2 130629Z 12007KT 25/18 A2999 RMK A01 T02490184  RH  067%=      5-min Rain = 0
KPD2 130630Z 12007KT 25/18 A2999 RMK A01 T02490184  RH  067%=      5-min Rain = 0
KPD2 130631Z 13006KT 25/18 A2999 RMK A01 T02490184  RH  067%=      5-min Rain = 0
KPD2 130632Z 13006KT 25/18 A2999 RMK A01 T02490184  RH  067%=      5-min Rain = 0
KPD2 130633Z 13006KT 25/18 A2999 RMK A01 T02490184  RH  067%=      5-min Rain = 0
KPD2 130634Z 13007KT 25/19 A2999 RMK A01 T02490185  RH  067%=      5-min Rain = 0
KPD2 130635Z 13006KT 25/19 A2998 RMK A01 T02490185  RH  067%=      5-min Rain = 0
KPD2 130636Z 12008KT 25/19 A2998 RMK A01 T02490185  RH  067%=      5-min Rain = 0
KPD2 130637Z 12008KT 25/18 A2998 RMK A01 T02480184  RH  068%=      5-min Rain = 0
KPD2 130638Z 13006KT 25/18 A2998 RMK A01 T02480184  RH  068%=      5-min Rain = 0
KPD2 130639Z 13006KT 25/18 A2998 RMK A01 T02480184  RH  068%=      5-min Rain = 0
KPD2 130640Z 13008G13KT 25/19 A2998 RMK A01 T02480185  RH  068%=      5-min Rain = 0
KPD2 130641Z 13007KT 25/18 A2998 RMK A01 T02480184  RH  068%=      5-min Rain = 0
KPD2 130642Z 13006KT 25/18 A2998 RMK A01 T02480184  RH  068%=      5-min Rain = 0
KPD2 130643Z 13007KT 25/18 A2998 RMK A01 T02470184  RH  068%=      5-min Rain = 0
KPD2 130644Z 13009KT 25/19 A2998 RMK A01 T02470185  RH  068%=      5-min Rain = 0
KPD2 130645Z 13007KT 25/18 A2998 RMK A01 T02470184  RH  068%=      5-min Rain = 0
KPD2 130646Z 12009KT 25/18 A2998 RMK A01 T02470184  RH  068%=      5-min Rain = 0
KPD2 130647Z 12007KT 25/19 A2998 RMK A01 T02470185  RH  068%=      5-min Rain = 0
KPD2 130648Z 13007KT 25/18 A2998 RMK A01 T02460184  RH  068%=      5-min Rain = 0
KPD2 130649Z 13007KT 25/19 A2998 RMK A01 T02460185  RH  069%=      5-min Rain = 0
KPD2 130650Z 13008KT 25/19 A2998 RMK A01 T02460185  RH  069%=      5-min Rain = 0
KPD2 130651Z 13007KT 25/19 A2998 RMK A01 T02460185  RH  069%=      5-min Rain = 0
KPD2 130652Z 12007KT 25/19 A2998 RMK A01 T02460185  RH  069%=      5-min Rain = 0
KPD2 130653Z 12007KT 25/19 A2998 RMK A01 T02460185  RH  069%=      5-min Rain = 0
KPD2 130654Z 12006KT 25/18 A2998 RMK A01 T02450184  RH  069%=      5-min Rain = 0
KPD2 130655Z 13007G13KT 25/19 A2998 RMK A01 T02450185  RH  069%=      5-min Rain = 0
KPD2 130656Z 12007KT 25/19 A2999 RMK A01 T02450185  RH  069%=      5-min Rain = 0
KPD2 130657Z 12005KT 25/18 A2999 RMK A01 T02450184  RH  069%=      5-min Rain = 0
KPD2 130658Z 13009KT 24/18 A2999 RMK A01 T02440184  RH  069%=      5-min Rain = 0
KPD2 130659Z 13007KT 25/18 A2999 RMK A01 T02450184  RH  069%=      5-min Rain = 0
KPD2 130700Z 13006KT 25/19 A2999 RMK A01 T02450185  RH  069%=      5-min Rain = 0
KPD2 130701Z 13007KT 25/19 A2999 RMK A01 T02450185  RH  069%=      5-min Rain = 0
KPD2 130702Z 13007KT 25/19 A2999 RMK A01 T02450185  RH  069%=      5-min Rain = 0
KPD2 130703Z 13008KT 25/19 A2999 RMK A01 T02450185  RH  069%=      5-min Rain = 0
KPD2 130704Z 14007KT 25/19 A2999 RMK A01 T02450185  RH  069%=      5-min Rain = 0
KPD2 130705Z 12008G13KT 24/19 A2999 RMK A01 T02440185  RH  069%=      5-min Rain = 0
KPD2 130706Z 12007KT 25/19 A2999 RMK A01 T02450185  RH  069%=      5-min Rain = 0
KPD2 130707Z 13008G15KT 25/19 A2999 RMK A01 T02450185  RH  069%=      5-min Rain = 0
KPD2 130708Z 13010KT 25/19 A2999 RMK A01 T02450185  RH  069%=      5-min Rain = 0
KPD2 130709Z 12009KT 25/19 A2999 RMK A01 T02450185  RH  069%=      5-min Rain = 0
KPD2 130710Z 12009KT 25/19 A2999 RMK A01 T02450185  RH  070%=      5-min Rain = 0
KPD2 130711Z 13008KT 25/19 A2999 RMK A01 T02450186  RH  070%=      5-min Rain = 0
KPD2 130712Z 12009KT 25/19 A2999 RMK A01 T02450185  RH  070%=      5-min Rain = 0
KPD2 130713Z 12005G10KT 24/19 A2999 RMK A01 T02440185  RH  069%=      5-min Rain = 0
KPD2 130714Z 12009KT 25/19 A2999 RMK A01 T02450185  RH  069%=      5-min Rain = 0
KPD2 130715Z 12007KT 25/19 A2999 RMK A01 T02450185  RH  069%=      5-min Rain = 0
KPD2 130716Z 12006KT 25/19 A2999 RMK A01 T02450185  RH  070%=      5-min Rain = 0
KPD2 130717Z 13008KT 24/19 A2999 RMK A01 T02440186  RH  070%=      5-min Rain = 0
KPD2 130718Z 13008KT 24/19 A2999 RMK A01 T02440186  RH  070%=      5-min Rain = 0
KPD2 130719Z 13008KT 24/19 A2999 RMK A01 T02440186  RH  070%=      5-min Rain = 0
KPD2 130720Z 14007KT 24/19 A2999 RMK A01 T02440186  RH  070%=      5-min Rain = 0
KPD2 130721Z 12007KT 24/19 A2999 RMK A01 T02440186  RH  070%=      5-min Rain = 0
KPD2 130722Z 13008KT 24/19 A2999 RMK A01 T02440186  RH  070%=      5-min Rain = 0
KPD2 130723Z 13007KT 24/19 A2999 RMK A01 T02440186  RH  070%=      5-min Rain = 0
KPD2 130724Z 13008KT 24/19 A2999 RMK A01 T02430185  RH  070%=      5-min Rain = 0
KPD2 130725Z 13006KT 24/19 A2999 RMK A01 T02430186  RH  070%=      5-min Rain = 0
KPD2 130726Z 13006KT 24/19 A2998 RMK A01 T02430186  RH  070%=      5-min Rain = 0
KPD2 130727Z 13006KT 24/19 A2999 RMK A01 T02430186  RH  070%=      5-min Rain = 0
KPD2 130728Z 14007KT 24/19 A2998 RMK A01 T02430186  RH  070%=      5-min Rain = 0
KPD2 130729Z 13007KT 24/19 A2998 RMK A01 T02430186  RH  070%=      5-min Rain = 0
KPD2 130730Z 14008KT 24/19 A2998 RMK A01 T02430186  RH  070%=      5-min Rain = 0
KPD2 130731Z 13007KT 24/19 A2998 RMK A01 T02430186  RH  071%=      5-min Rain = 0
KPD2 130732Z 14007KT 24/19 A2999 RMK A01 T02430186  RH  070%=      5-min Rain = 0
KPD2 130733Z 13009KT 24/19 A2999 RMK A01 T02430186  RH  071%=      5-min Rain = 0
KPD2 130734Z 14007KT 24/19 A2999 RMK A01 T02430186  RH  071%=      5-min Rain = 0
KPD2 130735Z 14007KT 24/19 A2999 RMK A01 T02430186  RH  071%=      5-min Rain = 0
KPD2 130736Z 13005KT 24/19 A2999 RMK A01 T02420186  RH  071%=      5-min Rain = 0
KPD2 130737Z 13004KT 24/19 A2999 RMK A01 T02420186  RH  071%=      5-min Rain = 0
KPD2 130738Z 12006KT 24/19 A2999 RMK A01 T02410186  RH  071%=      5-min Rain = 0
KPD2 130739Z 12010KT 24/19 A2999 RMK A01 T02410186  RH  071%=      5-min Rain = 0
KPD2 130740Z 11008KT 24/19 A2999 RMK A01 T02410186  RH  071%=      5-min Rain = 0
KPD2 130741Z 10007KT 24/19 A2999 RMK A01 T02410186  RH  071%=      5-min Rain = 0
KPD2 130742Z 11006KT 24/19 A2999 RMK A01 T02420187  RH  071%=      5-min Rain = 0
KPD2 130743Z 12005KT 24/19 A2999 RMK A01 T02410187  RH  071%=      5-min Rain = 0
KPD2 130744Z 12003KT 24/19 A2999 RMK A01 T02410187  RH  072%=      5-min Rain = 0
KPD2 130745Z 10005KT 24/19 A2999 RMK A01 T02410187  RH  072%=      5-min Rain = 0
KPD2 130746Z 10005KT 24/19 A2999 RMK A01 T02400187  RH  072%=      5-min Rain = 0
KPD2 130747Z 09005KT 24/19 A2999 RMK A01 T02400188  RH  073%=      5-min Rain = 0
KPD2 130748Z 11006KT 24/19 A2999 RMK A01 T02390188  RH  073%=      5-min Rain = 0
KPD2 130749Z 11002KT 24/19 A2999 RMK A01 T02390188  RH  073%=      5-min Rain = 0
KPD2 130750Z 09001KT 24/19 A2999 RMK A01 T02390188  RH  073%=      5-min Rain = 0
KPD2 130751Z 05005KT 24/19 A2999 RMK A01 T02380189  RH  074%=      5-min Rain = 0
KPD2 130752Z 08005KT 24/19 A2999 RMK A01 T02370189  RH  074%=      5-min Rain = 0
KPD2 130753Z 07003KT 24/19 A2999 RMK A01 T02360189  RH  075%=      5-min Rain = 0
KPD2 130754Z 09006KT 24/19 A2999 RMK A01 T02360190  RH  075%=      5-min Rain = 0
KPD2 130755Z 09003KT 24/19 A2999 RMK A01 T02350190  RH  076%=      5-min Rain = 0
KPD2 130756Z 10006KT 24/19 A30 RMK A01 T02350190  RH  076%=      5-min Rain = 0
KPD2 130757Z 09005KT 23/19 A30 RMK A01 T02340190  RH  076%=      5-min Rain = 0
KPD2 130758Z 10008KT 23/19 A30 RMK A01 T02340190  RH  077%=      5-min Rain = 0
KPD2 130759Z 09006KT 23/19 A30 RMK A01 T02330190  RH  077%=      5-min Rain = 0
KPD2 130800Z 10007KT 23/19 A30 RMK A01 T02330190  RH  077%=      5-min Rain = 0
KPD2 130801Z 09005KT 23/19 A30 RMK A01 T02320191  RH  077%=      5-min Rain = 0
KPD2 130802Z 10006KT 23/19 A30 RMK A01 T02330191  RH  077%=      5-min Rain = 0
KPD2 130803Z 11006KT 23/19 A30 RMK A01 T02320191  RH  078%=      5-min Rain = 0
KPD2 130804Z 10003KT 23/19 A30 RMK A01 T02320191  RH  078%=      5-min Rain = 0
KPD2 130805Z 09005KT 23/19 A30 RMK A01 T02320191  RH  078%=      5-min Rain = 0
KPD2 130806Z 09005KT 23/19 A30 RMK A01 T02310191  RH  078%=      5-min Rain = 0
KPD2 130807Z 10005KT 23/19 A30 RMK A01 T02310191  RH  078%=      5-min Rain = 0
KPD2 130808Z 13003KT 23/19 A30 RMK A01 T02310191  RH  078%=      5-min Rain = 0
KPD2 130809Z 12005KT 23/19 A30 RMK A01 T02310191  RH  078%=      5-min Rain = 0
KPD2 130810Z 12006KT 23/19 A30 RMK A01 T02310191  RH  078%=      5-min Rain = 0
KPD2 130811Z 13004KT 23/19 A30 RMK A01 T02310191  RH  078%=      5-min Rain = 0
KPD2 130812Z 13005KT 23/19 A30 RMK A01 T02310191  RH  078%=      5-min Rain = 0
KPD2 130813Z 12005KT 23/19 A30 RMK A01 T02310191  RH  078%=      5-min Rain = 0
KPD2 130814Z 12004KT 23/19 A30 RMK A01 T02310191  RH  078%=      5-min Rain = 0
KPD2 130815Z 12003KT 23/19 A30 RMK A01 T02310191  RH  078%=      5-min Rain = 0
KPD2 130816Z 13004KT 23/19 A30 RMK A01 T02310191  RH  078%=      5-min Rain = 0
KPD2 130817Z 14004KT 23/19 A30 RMK A01 T02310191  RH  078%=      5-min Rain = 0
KPD2 130818Z 14004KT 23/19 A30 RMK A01 T02300191  RH  078%=      5-min Rain = 0
KPD2 130819Z 12004KT 23/19 A30 RMK A01 T02300191  RH  078%=      5-min Rain = 0
KPD2 130820Z 13003KT 23/19 A30 RMK A01 T02300191  RH  078%=      5-min Rain = 0
KPD2 130821Z 12005KT 23/19 A30 RMK A01 T02300191  RH  078%=      5-min Rain = 0
KPD2 130822Z 13005KT 23/19 A30 RMK A01 T02300191  RH  079%=      5-min Rain = 0
KPD2 130823Z 12004KT 23/19 A30 RMK A01 T02300191  RH  079%=      5-min Rain = 0
KPD2 130824Z 13005KT 23/19 A2999 RMK A01 T02300191  RH  079%=      5-min Rain = 0
KPD2 130825Z 13004KT 23/19 A2999 RMK A01 T02300191  RH  079%=      5-min Rain = 0
KPD2 130826Z 12006KT 23/19 A2999 RMK A01 T02300191  RH  078%=      5-min Rain = 0
KPD2 130827Z 13004KT 23/19 A2999 RMK A01 T02300191  RH  078%=      5-min Rain = 0
KPD2 130828Z 14004KT 23/19 A2999 RMK A01 T02310191  RH  078%=      5-min Rain = 0
KPD2 130829Z 13003KT 23/19 A2999 RMK A01 T02300191  RH  078%=      5-min Rain = 0
KPD2 130830Z 13004KT 23/19 A2999 RMK A01 T02300191  RH  078%=      5-min Rain = 0
KPD2 130831Z 14004KT 23/19 A2999 RMK A01 T02300191  RH  078%=      5-min Rain = 0
KPD2 130832Z 14005KT 23/19 A2999 RMK A01 T02300191  RH  078%=      5-min Rain = 0
KPD2 130833Z 13004KT 23/19 A2999 RMK A01 T02300191  RH  079%=      5-min Rain = 0
KPD2 130834Z 13004KT 23/19 A2999 RMK A01 T02300191  RH  079%=      5-min Rain = 0
KPD2 130835Z 13004KT 23/19 A2999 RMK A01 T02300191  RH  078%=      5-min Rain = 0
KPD2 130836Z 13004KT 23/19 A2999 RMK A01 T02300191  RH  078%=      5-min Rain = 0
KPD2 130837Z 14004KT 23/19 A2999 RMK A01 T02300191  RH  078%=      5-min Rain = 0
KPD2 130838Z 13004KT 23/19 A2999 RMK A01 T02300191  RH  078%=      5-min Rain = 0
KPD2 130839Z 14004KT 23/19 A2999 RMK A01 T02300191  RH  079%=      5-min Rain = 0
KPD2 130840Z 11006KT 23/19 A2999 RMK A01 T02300191  RH  079%=      5-min Rain = 0
KPD2 130841Z 13008KT 23/19 A2999 RMK A01 T02300191  RH  079%=      5-min Rain = 0
KPD2 130842Z 15008KT 23/19 A2999 RMK A01 T02300191  RH  079%=      5-min Rain = 0
KPD2 130843Z 14006KT 23/19 A2999 RMK A01 T02300191  RH  078%=      5-min Rain = 0
KPD2 130844Z 15008KT 23/19 A2999 RMK A01 T02310191  RH  078%=      5-min Rain = 0
KPD2 130845Z 14009KT 23/19 A2999 RMK A01 T02310191  RH  078%=      5-min Rain = 0
KPD2 130846Z 14009KT 23/19 A30 RMK A01 T02320191  RH  078%=      5-min Rain = 0
KPD2 130847Z 13009KT 23/19 A30 RMK A01 T02320191  RH  078%=      5-min Rain = 0
KPD2 130848Z 14008KT 23/19 A30 RMK A01 T02320192  RH  078%=      5-min Rain = 0
KPD2 130849Z 13007KT 23/19 A30 RMK A01 T02320192  RH  078%=      5-min Rain = 0
KPD2 130850Z 13007KT 23/19 A30 RMK A01 T02320191  RH  078%=      5-min Rain = 0
KPD2 130851Z 14006KT 23/19 A30 RMK A01 T02320192  RH  078%=      5-min Rain = 0
KPD2 130852Z 14004KT 23/19 A30 RMK A01 T02320192  RH  078%=      5-min Rain = 0
KPD2 130853Z 14005KT 23/19 A30 RMK A01 T02320192  RH  078%=      5-min Rain = 0
KPD2 130854Z 15004KT 23/19 A30 RMK A01 T02320191  RH  078%=      5-min Rain = 0
KPD2 130855Z 14006KT 23/19 A30 RMK A01 T02310192  RH  078%=      5-min Rain = 0
KPD2 130856Z 14006KT 23/19 A30 RMK A01 T02310192  RH  078%=      5-min Rain = 0
KPD2 130857Z 14006KT 23/19 A30 RMK A01 T02310192  RH  079%=      5-min Rain = 0
KPD2 130858Z 15005KT 23/19 A30 RMK A01 T02310192  RH  079%=      5-min Rain = 0
KPD2 130859Z 14003KT 23/19 A30 RMK A01 T02310192  RH  079%=      5-min Rain = 0
KPD2 130900Z 15003KT 23/19 A30 RMK A01 T02300192  RH  079%=      5-min Rain = 0
KPD2 130901Z 14004KT 23/19 A30 RMK A01 T02300192  RH  079%=      5-min Rain = 0
KPD2 130902Z 14003KT 23/19 A30 RMK A01 T02300192  RH  079%=      5-min Rain = 0
KPD2 130903Z 13004KT 23/19 A30 RMK A01 T02300192  RH  079%=      5-min Rain = 0
KPD2 130904Z 13003KT 23/19 A30 RMK A01 T02290192  RH  079%=      5-min Rain = 0
KPD2 130905Z 14001KT 23/19 A30 RMK A01 T02290192  RH  079%=      5-min Rain = 0
KPD2 130906Z 14003KT 23/19 A30 RMK A01 T02290192  RH  080%=      5-min Rain = 0
KPD2 130907Z 13002KT 23/19 A3001 RMK A01 T02290192  RH  080%=      5-min Rain = 0
KPD2 130908Z 15002KT 23/19 A30 RMK A01 T02290192  RH  080%=      5-min Rain = 0
KPD2 130909Z 13003KT 23/19 A3001 RMK A01 T02280192  RH  080%=      5-min Rain = 0
KPD2 130910Z 14004KT 23/19 A3001 RMK A01 T02280192  RH  080%=      5-min Rain = 0
KPD2 130911Z 15004KT 23/19 A3001 RMK A01 T02280192  RH  080%=      5-min Rain = 0
KPD2 130912Z 14004KT 23/19 A3001 RMK A01 T02280192  RH  080%=      5-min Rain = 0
KPD2 130913Z 14004KT 23/19 A3001 RMK A01 T02280192  RH  080%=      5-min Rain = 0
KPD2 130914Z 15003KT 23/19 A3001 RMK A01 T02280192  RH  080%=      5-min Rain = 0
KPD2 130915Z 14004KT 23/19 A3001 RMK A01 T02280192  RH  080%=      5-min Rain = 0
KPD2 130916Z 13003KT 23/19 A3001 RMK A01 T02280192  RH  080%=      5-min Rain = 0
KPD2 130917Z 13002KT 23/19 A3001 RMK A01 T02280192  RH  080%=      5-min Rain = 0
KPD2 130918Z 13003KT 23/19 A3001 RMK A01 T02280192  RH  080%=      5-min Rain = 0
KPD2 130919Z 13003KT 23/19 A3001 RMK A01 T02280192  RH  080%=      5-min Rain = 0
KPD2 130920Z 13002KT 23/19 A3001 RMK A01 T02270192  RH  080%=      5-min Rain = 0
KPD2 130921Z 13001KT 23/19 A3001 RMK A01 T02270192  RH  081%=      5-min Rain = 0
KPD2 130922Z 13003KT 23/19 A3001 RMK A01 T02260192  RH  081%=      5-min Rain = 0
KPD2 130923Z 13002KT 23/19 A3001 RMK A01 T02260192  RH  081%=      5-min Rain = 0
KPD2 130924Z 13001KT 23/19 A3001 RMK A01 T02260192  RH  081%=      5-min Rain = 0
KPD2 130925Z 14002KT 23/19 A3001 RMK A01 T02250192  RH  081%=      5-min Rain = 0
KPD2 130926Z 14002KT 23/19 A3001 RMK A01 T02250191  RH  081%=      5-min Rain = 0
KPD2 130927Z 14002KT 23/19 A3001 RMK A01 T02250192  RH  081%=      5-min Rain = 0
KPD2 130928Z 15002KT 23/19 A3001 RMK A01 T02250192  RH  082%=      5-min Rain = 0
KPD2 130929Z 14003KT 22/19 A3001 RMK A01 T02240191  RH  082%=      5-min Rain = 0
KPD2 130930Z 14003KT 22/19 A3001 RMK A01 T02240192  RH  082%=      5-min Rain = 0
KPD2 130931Z 13003KT 22/19 A3001 RMK A01 T02240192  RH  082%=      5-min Rain = 0
KPD2 130932Z 14003KT 23/19 A3001 RMK A01 T02250192  RH  082%=      5-min Rain = 0
KPD2 130933Z 14003KT 23/19 A3001 RMK A01 T02250191  RH  081%=      5-min Rain = 0
KPD2 130934Z 14003KT 23/19 A3001 RMK A01 T02250191  RH  081%=      5-min Rain = 0
KPD2 130935Z 14002KT 23/19 A3001 RMK A01 T02250192  RH  081%=      5-min Rain = 0
KPD2 130936Z 14003KT 23/19 A3001 RMK A01 T02250192  RH  081%=      5-min Rain = 0
KPD2 130937Z 13003KT 23/19 A3001 RMK A01 T02250192  RH  082%=      5-min Rain = 0
KPD2 130938Z 13003KT 23/19 A3001 RMK A01 T02250192  RH  082%=      5-min Rain = 0
KPD2 130939Z 13002KT 22/19 A3001 RMK A01 T02240191  RH  082%=      5-min Rain = 0
KPD2 130940Z 13002KT 22/19 A3001 RMK A01 T02240192  RH  082%=      5-min Rain = 0
KPD2 130941Z 13002KT 22/19 A3001 RMK A01 T02240192  RH  082%=      5-min Rain = 0
KPD2 130942Z 15002KT 22/19 A3002 RMK A01 T02240191  RH  082%=      5-min Rain = 0
KPD2 130943Z 15000KT 22/19 A3002 RMK A01 T02240191  RH  082%=      5-min Rain = 0
KPD2 130944Z 13000KT 22/19 A3002 RMK A01 T02230190  RH  082%=      5-min Rain = 0
KPD2 130945Z 14001KT 22/19 A3002 RMK A01 T02230191  RH  082%=      5-min Rain = 0
KPD2 130946Z 14001KT 22/19 A3002 RMK A01 T02220191  RH  082%=      5-min Rain = 0
KPD2 130947Z 00000KT 22/19 A3002 RMK A01 T02220191  RH  083%=      5-min Rain = 0
KPD2 130948Z 00000KT 22/19 A3002 RMK A01 T02210191  RH  083%=      5-min Rain = 0
KPD2 130949Z 00000KT 22/19 A3002 RMK A01 T02210191  RH  083%=      5-min Rain = 0
KPD2 130950Z 10000KT 22/19 A3002 RMK A01 T02210191  RH  083%=      5-min Rain = 0
KPD2 130951Z 10000KT 22/19 A3002 RMK A01 T02200190  RH  083%=      5-min Rain = 0
KPD2 130952Z 00000KT 22/19 A3002 RMK A01 T02200190  RH  083%=      5-min Rain = 0
KPD2 130953Z 11000KT 22/19 A3002 RMK A01 T02200190  RH  083%=      5-min Rain = 0
KPD2 130954Z 21000KT 22/19 A3002 RMK A01 T02200191  RH  084%=      5-min Rain = 0
KPD2 130955Z 21000KT 22/19 A3002 RMK A01 T02190190  RH  084%=      5-min Rain = 0
KPD2 130956Z 22001KT 22/19 A3002 RMK A01 T02190190  RH  084%=      5-min Rain = 0
KPD2 130957Z 25002KT 22/19 A3002 RMK A01 T02190190  RH  084%=      5-min Rain = 0
KPD2 130958Z 26001KT 22/19 A3002 RMK A01 T02180189  RH  084%=      5-min Rain = 0
KPD2 130959Z 27001KT 22/19 A3002 RMK A01 T02180189  RH  084%=      5-min Rain = 0
KPD2 131000Z 27001KT 22/19 A3002 RMK A01 T02170190  RH  084%=      5-min Rain = 0
KPD2 131001Z 27000KT 22/19 A3002 RMK A01 T02160190  RH  085%=      5-min Rain = 0
KPD2 131002Z 27000KT 22/19 A3002 RMK A01 T02160190  RH  085%=      5-min Rain = 0
KPD2 131003Z 27001KT 22/19 A3002 RMK A01 T02150190  RH  086%=      5-min Rain = 0
KPD2 131004Z 27001KT 22/19 A3002 RMK A01 T02150190  RH  086%=      5-min Rain = 0
KPD2 131005Z 27000KT 21/19 A3002 RMK A01 T02140190  RH  086%=      5-min Rain = 0
KPD2 131006Z 27000KT 21/19 A3002 RMK A01 T02140190  RH  086%=      5-min Rain = 0
KPD2 131007Z 27000KT 21/19 A3002 RMK A01 T02140191  RH  087%=      5-min Rain = 0
KPD2 131008Z 27000KT 21/19 A3002 RMK A01 T02130191  RH  087%=      5-min Rain = 0
KPD2 131009Z 27000KT 21/19 A3002 RMK A01 T02140191  RH  087%=      5-min Rain = 0
KPD2 131010Z 27000KT 21/19 A3002 RMK A01 T02140191  RH  087%=      5-min Rain = 0
KPD2 131011Z 00000KT 21/19 A3002 RMK A01 T02140191  RH  087%=      5-min Rain = 0
KPD2 131012Z 00000KT 21/19 A3002 RMK A01 T02140191  RH  087%=      5-min Rain = 0
KPD2 131013Z 00000KT 21/19 A3002 RMK A01 T02130190  RH  087%=      5-min Rain = 0
KPD2 131014Z 00000KT 21/19 A3002 RMK A01 T02130190  RH  087%=      5-min Rain = 0
KPD2 131015Z 00000KT 21/19 A3002 RMK A01 T02130191  RH  087%=      5-min Rain = 0
KPD2 131016Z 27001KT 21/19 A3002 RMK A01 T02130191  RH  087%=      5-min Rain = 0
KPD2 131017Z 27002KT 21/19 A3002 RMK A01 T02130191  RH  087%=      5-min Rain = 0
KPD2 131018Z 27001KT 21/19 A3002 RMK A01 T02130190  RH  087%=      5-min Rain = 0
KPD2 131019Z 29001KT 21/19 A3002 RMK A01 T02120190  RH  087%=      5-min Rain = 0
KPD2 131020Z 30002KT 21/19 A3002 RMK A01 T02120190  RH  087%=      5-min Rain = 0
KPD2 131021Z 31002KT 21/19 A3002 RMK A01 T02120190  RH  087%=      5-min Rain = 0
KPD2 131022Z 31002KT 21/19 A3002 RMK A01 T02120190  RH  087%=      5-min Rain = 0
KPD2 131023Z 31003KT 21/19 A3002 RMK A01 T02110189  RH  087%=      5-min Rain = 0
KPD2 131024Z 32002KT 21/19 A3002 RMK A01 T02110189  RH  087%=      5-min Rain = 0
KPD2 131025Z 32002KT 21/19 A3002 RMK A01 T02100188  RH  087%=      5-min Rain = 0
KPD2 131026Z 32001KT 21/19 A3002 RMK A01 T02100188  RH  087%=      5-min Rain = 0
KPD2 131027Z 33002KT 21/19 A3002 RMK A01 T02100188  RH  087%=      5-min Rain = 0
KPD2 131028Z 34002KT 21/19 A3002 RMK A01 T02090187  RH  087%=      5-min Rain = 0
KPD2 131029Z 35002KT 21/19 A3002 RMK A01 T02090187  RH  088%=      5-min Rain = 0
KPD2 131030Z 35002KT 21/19 A3002 RMK A01 T02090188  RH  088%=      5-min Rain = 0
KPD2 131031Z 35002KT 21/19 A3002 RMK A01 T02080188  RH  088%=      5-min Rain = 0
KPD2 131032Z 35002KT 21/19 A3002 RMK A01 T02090188  RH  088%=      5-min Rain = 0
KPD2 131033Z 36002KT 21/19 A3002 RMK A01 T02080188  RH  088%=      5-min Rain = 0
KPD2 131034Z 35002KT 21/19 A3002 RMK A01 T02080188  RH  088%=      5-min Rain = 0
KPD2 131035Z 35002KT 21/19 A3002 RMK A01 T02080188  RH  088%=      5-min Rain = 0
KPD2 131036Z 35002KT 21/19 A3002 RMK A01 T02080189  RH  088%=      5-min Rain = 0
KPD2 131037Z 35002KT 21/19 A3002 RMK A01 T02090189  RH  088%=      5-min Rain = 0
KPD2 131038Z 29001KT 21/19 A3003 RMK A01 T02080188  RH  088%=      5-min Rain = 0
KPD2 131039Z 26002KT 21/19 A3003 RMK A01 T02080188  RH  088%=      5-min Rain = 0
KPD2 131040Z 28003KT 21/19 A3003 RMK A01 T02090188  RH  088%=      5-min Rain = 0
KPD2 131041Z 28003KT 21/19 A3003 RMK A01 T02080188  RH  088%=      5-min Rain = 0
KPD2 131042Z 28003KT 21/19 A3003 RMK A01 T02090189  RH  088%=      5-min Rain = 0
KPD2 131043Z 29003KT 21/19 A3003 RMK A01 T02080189  RH  088%=      5-min Rain = 0
KPD2 131044Z 29002KT 21/19 A3003 RMK A01 T02080188  RH  088%=      5-min Rain = 0
KPD2 131045Z 29003KT 21/19 A3003 RMK A01 T02080188  RH  088%=      5-min Rain = 0
KPD2 131046Z 29003KT 21/19 A3003 RMK A01 T02080188  RH  088%=      5-min Rain = 0
KPD2 131047Z 29003KT 21/19 A3003 RMK A01 T02080188  RH  088%=      5-min Rain = 0
KPD2 131048Z 30003KT 21/19 A3003 RMK A01 T02080188  RH  088%=      5-min Rain = 0
KPD2 131049Z 30004KT 21/19 A3003 RMK A01 T02080189  RH  089%=      5-min Rain = 0
KPD2 131050Z 30004KT 21/19 A3003 RMK A01 T02080188  RH  089%=      5-min Rain = 0
KPD2 131051Z 30003KT 21/19 A3003 RMK A01 T02080189  RH  089%=      5-min Rain = 0
KPD2 131052Z 31003KT 21/19 A3003 RMK A01 T02080188  RH  088%=      5-min Rain = 0
KPD2 131053Z 31002KT 21/19 A3003 RMK A01 T02080188  RH  088%=      5-min Rain = 0
KPD2 131054Z 31003KT 21/19 A3003 RMK A01 T02080188  RH  088%=      5-min Rain = 0
KPD2 131055Z 31002KT 21/19 A3003 RMK A01 T02080188  RH  089%=      5-min Rain = 0
KPD2 131056Z 32002KT 21/19 A3003 RMK A01 T02070188  RH  089%=      5-min Rain = 0
KPD2 131057Z 33002KT 21/19 A3003 RMK A01 T02070188  RH  089%=      5-min Rain = 0
KPD2 131058Z 33002KT 21/19 A3003 RMK A01 T02070188  RH  089%=      5-min Rain = 0
KPD2 131059Z 34001KT 21/19 A3003 RMK A01 T02060187  RH  089%=      5-min Rain = 0
KPD2 131100Z 00001KT 21/19 A3003 RMK A01 T02060188  RH  089%=      5-min Rain = 0
KPD2 131101Z 34002KT 21/19 A3003 RMK A01 T02060188  RH  090%=      5-min Rain = 0
KPD2 131102Z 35002KT 21/19 A3003 RMK A01 T02060189  RH  090%=      5-min Rain = 0
KPD2 131103Z 34002KT 21/19 A3003 RMK A01 T02060189  RH  090%=      5-min Rain = 0
KPD2 131104Z 32002KT 21/19 A3003 RMK A01 T02060188  RH  089%=      5-min Rain = 0
KPD2 131105Z 30003KT 21/19 A3003 RMK A01 T02060188  RH  090%=      5-min Rain = 0
KPD2 131106Z 30003KT 21/19 A3003 RMK A01 T02050188  RH  090%=      5-min Rain = 0
KPD2 131107Z 30003KT 21/19 A3003 RMK A01 T02050188  RH  090%=      5-min Rain = 0
KPD2 131108Z 29003KT 21/19 A3003 RMK A01 T02050188  RH  090%=      5-min Rain = 0
KPD2 131109Z 30003KT 21/19 A3003 RMK A01 T02050189  RH  090%=      5-min Rain = 0
KPD2 131110Z 31003KT 21/19 A3003 RMK A01 T02050189  RH  090%=      5-min Rain = 0
KPD2 131111Z 33002KT 21/19 A3003 RMK A01 T02050188  RH  090%=      5-min Rain = 0
KPD2 131112Z 33002KT 21/19 A3003 RMK A01 T02050188  RH  090%=      5-min Rain = 0
KPD2 131113Z 34002KT 21/19 A3003 RMK A01 T02050188  RH  090%=      5-min Rain = 0
KPD2 131114Z 35003KT 20/19 A3003 RMK A01 T02040188  RH  090%=      5-min Rain = 0
KPD2 131115Z 36003KT 20/19 A3003 RMK A01 T02040188  RH  090%=      5-min Rain = 0
KPD2 131116Z 35003KT 20/19 A3003 RMK A01 T02040188  RH  090%=      5-min Rain = 0
KPD2 131117Z 34003KT 20/19 A3003 RMK A01 T02040188  RH  090%=      5-min Rain = 0
KPD2 131118Z 33004KT 20/19 A3003 RMK A01 T02040189  RH  091%=      5-min Rain = 0
KPD2 131119Z 33003KT 21/19 A3003 RMK A01 T02050189  RH  091%=      5-min Rain = 0
KPD2 131120Z 32004KT 21/19 A3003 RMK A01 T02050189  RH  091%=      5-min Rain = 0
KPD2 131121Z 33003KT 21/19 A3003 RMK A01 T02050189  RH  091%=      5-min Rain = 0
KPD2 131122Z 32003KT 21/19 A3003 RMK A01 T02050189  RH  091%=      5-min Rain = 0
KPD2 131123Z 33002KT 21/19 A3004 RMK A01 T02060190  RH  091%=      5-min Rain = 0
KPD2 131124Z 32003KT 21/19 A3004 RMK A01 T02060190  RH  091%=      5-min Rain = 0
KPD2 131125Z 32003KT 21/19 A3004 RMK A01 T02060190  RH  090%=      5-min Rain = 0
KPD2 131126Z 31004KT 21/19 A3004 RMK A01 T02060190  RH  090%=      5-min Rain = 0
KPD2 131127Z 31004KT 21/19 A3004 RMK A01 T02060190  RH  090%=      5-min Rain = 0
KPD2 131128Z 31004KT 21/19 A3004 RMK A01 T02070190  RH  090%=      5-min Rain = 0
KPD2 131129Z 31003KT 21/19 A3004 RMK A01 T02070190  RH  090%=      5-min Rain = 0
KPD2 131130Z 31004KT 21/19 A3004 RMK A01 T02070190  RH  090%=      5-min Rain = 0
KPD2 131131Z 30004KT 21/19 A3004 RMK A01 T02070190  RH  090%=      5-min Rain = 0
KPD2 131132Z 30004KT 21/19 A3004 RMK A01 T02070190  RH  090%=      5-min Rain = 0
KPD2 131133Z 30004KT 21/19 A3004 RMK A01 T02070190  RH  090%=      5-min Rain = 0
KPD2 131134Z 30004KT 21/19 A3004 RMK A01 T02060190  RH  090%=      5-min Rain = 0
KPD2 131135Z 31004KT 21/19 A3004 RMK A01 T02060190  RH  090%=      5-min Rain = 0
KPD2 131136Z 31005KT 21/19 A3004 RMK A01 T02070191  RH  090%=      5-min Rain = 0
KPD2 131137Z 31005KT 21/19 A3004 RMK A01 T02070191  RH  091%=      5-min Rain = 0
KPD2 131138Z 31004KT 21/19 A3004 RMK A01 T02070191  RH  091%=      5-min Rain = 0
KPD2 131139Z 31004KT 21/19 A3004 RMK A01 T02070191  RH  090%=      5-min Rain = 0
KPD2 131140Z 31006KT 21/19 A3004 RMK A01 T02070191  RH  090%=      5-min Rain = 0
KPD2 131141Z 30005KT 21/19 A3004 RMK A01 T02070191  RH  091%=      5-min Rain = 0
KPD2 131142Z 29005KT 21/19 A3004 RMK A01 T02070191  RH  091%=      5-min Rain = 0
KPD2 131143Z 30003KT 21/19 A3004 RMK A01 T02070192  RH  091%=      5-min Rain = 0
KPD2 131144Z 30003KT 21/19 A3004 RMK A01 T02070191  RH  091%=      5-min Rain = 0
KPD2 131145Z 30002KT 21/19 A3004 RMK A01 T02070191  RH  090%=      5-min Rain = 0
KPD2 131146Z 31002KT 21/19 A3004 RMK A01 T02070190  RH  090%=      5-min Rain = 0
KPD2 131147Z 32002KT 21/19 A3004 RMK A01 T02060190  RH  090%=      5-min Rain = 0
KPD2 131148Z 33001KT 21/19 A3004 RMK A01 T02060190  RH  090%=      5-min Rain = 0
KPD2 131149Z 32002KT 21/19 A3004 RMK A01 T02060190  RH  091%=      5-min Rain = 0
KPD2 131150Z 31002KT 21/19 A3004 RMK A01 T02050189  RH  091%=      5-min Rain = 0
KPD2 131151Z 30001KT 21/19 A3004 RMK A01 T02050190  RH  091%=      5-min Rain = 0
KPD2 131152Z 29002KT 21/19 A3004 RMK A01 T02050190  RH  091%=      5-min Rain = 0
KPD2 131153Z 29003KT 21/19 A3004 RMK A01 T02050189  RH  091%=      5-min Rain = 0
KPD2 131154Z 29002KT 20/19 A3004 RMK A01 T02040189  RH  091%=      5-min Rain = 0
KPD2 131155Z 30003KT 21/19 A3004 RMK A01 T02050190  RH  091%=      5-min Rain = 0
KPD2 131156Z 29004KT 20/19 A3004 RMK A01 T02040189  RH  091%=      5-min Rain = 0
KPD2 131157Z 30005KT 21/19 A3004 RMK A01 T02050189  RH  091%=      5-min Rain = 0
KPD2 131158Z 30004KT 21/19 A3004 RMK A01 T02050190  RH  091%=      5-min Rain = 0
KPD2 131159Z 28003KT 21/19 A3005 RMK A01 T02060190  RH  090%=      5-min Rain = 0
KPD2 131200Z 28003KT 21/19 A3005 RMK A01 T02070190  RH  090%=      5-min Rain = 0
KPD2 131201Z 28003KT 21/19 A3005 RMK A01 T02070190  RH  090%=      5-min Rain = 0
KPD2 131202Z 30003KT 21/19 A3005 RMK A01 T02070190  RH  090%=      5-min Rain = 0
KPD2 131203Z 30002KT 21/19 A3005 RMK A01 T02080191  RH  090%=      5-min Rain = 0
KPD2 131204Z 30002KT 21/19 A3005 RMK A01 T02080191  RH  090%=      5-min Rain = 0
KPD2 131205Z 31004KT 21/19 A3005 RMK A01 T02080191  RH  090%=      5-min Rain = 0
KPD2 131206Z 30003KT 21/19 A3005 RMK A01 T02080191  RH  089%=      5-min Rain = 0
KPD2 131207Z 31003KT 21/19 A3005 RMK A01 T02090191  RH  089%=      5-min Rain = 0
KPD2 131208Z 33003KT 21/19 A3005 RMK A01 T02090191  RH  089%=      5-min Rain = 0
KPD2 131209Z 31004KT 21/19 A3005 RMK A01 T02090191  RH  089%=      5-min Rain = 0
KPD2 131210Z 30003KT 21/19 A3005 RMK A01 T02090191  RH  090%=      5-min Rain = 0
KPD2 131211Z 29002KT 21/19 A3005 RMK A01 T02090191  RH  089%=      5-min Rain = 0
KPD2 131212Z 27003KT 21/19 A3005 RMK A01 T02090191  RH  089%=      5-min Rain = 0
KPD2 131213Z 28002KT 21/19 A3005 RMK A01 T02090191  RH  089%=      5-min Rain = 0
KPD2 131214Z 28003KT 21/19 A3006 RMK A01 T02090191  RH  090%=      5-min Rain = 0
KPD2 131215Z 30004KT 21/19 A3006 RMK A01 T02090191  RH  090%=      5-min Rain = 0
KPD2 131216Z 31004KT 21/19 A3006 RMK A01 T02090191  RH  089%=      5-min Rain = 0
KPD2 131217Z 31005KT 21/19 A3006 RMK A01 T02090191  RH  089%=      5-min Rain = 0
KPD2 131218Z 30004KT 21/19 A3006 RMK A01 T02100191  RH  089%=      5-min Rain = 0
KPD2 131219Z 31004KT 21/19 A3006 RMK A01 T02110191  RH  089%=      5-min Rain = 0
KPD2 131220Z 30004KT 21/19 A3006 RMK A01 T02110191  RH  088%=      5-min Rain = 0
KPD2 131221Z 31003KT 21/19 A3006 RMK A01 T02110191  RH  088%=      5-min Rain = 0
KPD2 131222Z 30003KT 21/19 A3006 RMK A01 T02100191  RH  088%=      5-min Rain = 0
KPD2 131223Z 32003KT 21/19 A3006 RMK A01 T02100190  RH  089%=      5-min Rain = 0
KPD2 131224Z 32004KT 21/19 A3006 RMK A01 T02090190  RH  089%=      5-min Rain = 0
KPD2 131225Z 32003KT 21/19 A3006 RMK A01 T02090190  RH  089%=      5-min Rain = 0
KPD2 131226Z 32004KT 21/19 A3006 RMK A01 T02090190  RH  089%=      5-min Rain = 0
KPD2 131227Z 31003KT 21/19 A3006 RMK A01 T02090191  RH  089%=      5-min Rain = 0
KPD2 131228Z 30003KT 21/19 A3006 RMK A01 T02080190  RH  089%=      5-min Rain = 0
KPD2 131229Z 30003KT 21/19 A3006 RMK A01 T02080190  RH  090%=      5-min Rain = 0
KPD2 131230Z 31003KT 21/19 A3006 RMK A01 T02080191  RH  090%=      5-min Rain = 0
KPD2 131231Z 31002KT 21/19 A3006 RMK A01 T02080191  RH  090%=      5-min Rain = 0
KPD2 131232Z 29003KT 21/19 A3006 RMK A01 T02080190  RH  090%=      5-min Rain = 0
KPD2 131233Z 30003KT 21/19 A3006 RMK A01 T02070190  RH  090%=      5-min Rain = 0
KPD2 131234Z 29004KT 21/19 A3006 RMK A01 T02070190  RH  090%=      5-min Rain = 0
KPD2 131235Z 30004KT 21/19 A3006 RMK A01 T02070190  RH  090%=      5-min Rain = 0
KPD2 131236Z 30005KT 21/19 A3006 RMK A01 T02070190  RH  090%=      5-min Rain = 0
KPD2 131237Z 30004KT 21/19 A3006 RMK A01 T02070191  RH  090%=      5-min Rain = 0
KPD2 131238Z 30003KT 21/19 A3006 RMK A01 T02070190  RH  090%=      5-min Rain = 0
KPD2 131239Z 31002KT 21/19 A3006 RMK A01 T02070190  RH  090%=      5-min Rain = 0
KPD2 131240Z 31003KT 21/19 A3007 RMK A01 T02070190  RH  090%=      5-min Rain = 0
KPD2 131241Z 31003KT 21/19 A3007 RMK A01 T02070191  RH  091%=      5-min Rain = 0
KPD2 131242Z 32003KT 21/19 A3007 RMK A01 T02070191  RH  091%=      5-min Rain = 0
KPD2 131243Z 33003KT 21/19 A3007 RMK A01 T02070191  RH  091%=      5-min Rain = 0
KPD2 131244Z 31003KT 21/19 A3007 RMK A01 T02060191  RH  091%=      5-min Rain = 0
KPD2 131245Z 31003KT 21/19 A3007 RMK A01 T02070191  RH  091%=      5-min Rain = 0
KPD2 131246Z 32003KT 21/19 A3007 RMK A01 T02070191  RH  091%=      5-min Rain = 0
KPD2 131247Z 33004KT 21/19 A3007 RMK A01 T02070191  RH  091%=      5-min Rain = 0
KPD2 131248Z 33003KT 21/19 A3007 RMK A01 T02070192  RH  091%=      5-min Rain = 0
KPD2 131249Z 36002KT 21/19 A3007 RMK A01 T02070192  RH  091%=      5-min Rain = 0
KPD2 131250Z 35003KT 21/19 A3007 RMK A01 T02070192  RH  091%=      5-min Rain = 0
KPD2 131251Z 33004KT 21/19 A3007 RMK A01 T02070192  RH  091%=      5-min Rain = 0
KPD2 131252Z 33004KT 21/19 A3007 RMK A01 T02080192  RH  091%=      5-min Rain = 0
KPD2 131253Z 33004KT 21/19 A3007 RMK A01 T02080192  RH  091%=      5-min Rain = 0
KPD2 131254Z 33003KT 21/19 A3007 RMK A01 T02070191  RH  090%=      5-min Rain = 0
KPD2 131255Z 33003KT 21/19 A3007 RMK A01 T02070191  RH  090%=      5-min Rain = 0
KPD2 131256Z 35003KT 21/19 A3007 RMK A01 T02070191  RH  090%=      5-min Rain = 0
KPD2 131257Z 34003KT 21/19 A3007 RMK A01 T02080192  RH  090%=      5-min Rain = 0
KPD2 131258Z 34003KT 21/19 A3007 RMK A01 T02080192  RH  090%=      5-min Rain = 0
KPD2 131259Z 35003KT 21/19 A3007 RMK A01 T02080192  RH  090%=      5-min Rain = 0
KPD2 131300Z 01001KT 21/19 A3007 RMK A01 T02080192  RH  090%=      5-min Rain = 0
KPD2 131301Z 00000KT 21/19 A3007 RMK A01 T02080192  RH  090%=      5-min Rain = 0
KPD2 131302Z 01000KT 21/19 A3007 RMK A01 T02080192  RH  090%=      5-min Rain = 0
KPD2 131303Z 35001KT 21/19 A3007 RMK A01 T02090192  RH  090%=      5-min Rain = 0
KPD2 131304Z 32002KT 21/19 A3007 RMK A01 T02090192  RH  090%=      5-min Rain = 0
KPD2 131305Z 32002KT 21/19 A3007 RMK A01 T02090192  RH  090%=      5-min Rain = 0
KPD2 131306Z 33003KT 21/19 A3007 RMK A01 T02090192  RH  090%=      5-min Rain = 0
KPD2 131307Z 30003KT 21/19 A3007 RMK A01 T02090192  RH  090%=      5-min Rain = 0
KPD2 131308Z 31003KT 21/19 A3007 RMK A01 T02090192  RH  090%=      5-min Rain = 0
KPD2 131309Z 32004KT 21/19 A3007 RMK A01 T02100193  RH  090%=      5-min Rain = 0
KPD2 131310Z 32003KT 21/19 A3007 RMK A01 T02100192  RH  090%=      5-min Rain = 0
KPD2 131311Z 32004KT 21/19 A3007 RMK A01 T02110192  RH  089%=      5-min Rain = 0
KPD2 131312Z 32003KT 21/19 A3007 RMK A01 T02110193  RH  089%=      5-min Rain = 0
KPD2 131313Z 32003KT 21/19 A3007 RMK A01 T02120193  RH  089%=      5-min Rain = 0
KPD2 131314Z 32003KT 21/19 A3007 RMK A01 T02130193  RH  088%=      5-min Rain = 0
KPD2 131315Z 30003KT 21/19 A3007 RMK A01 T02140193  RH  088%=      5-min Rain = 0
KPD2 131316Z 29002KT 22/19 A3007 RMK A01 T02150194  RH  088%=      5-min Rain = 0
KPD2 131317Z 30001KT 22/19 A3007 RMK A01 T02160194  RH  088%=      5-min Rain = 0
KPD2 131318Z 31002KT 22/20 A3007 RMK A01 T02170195  RH  087%=      5-min Rain = 0
KPD2 131319Z 32003KT 22/20 A3007 RMK A01 T02180196  RH  087%=      5-min Rain = 0
KPD2 131320Z 31002KT 22/20 A3007 RMK A01 T02190195  RH  086%=      5-min Rain = 0
KPD2 131321Z 31000KT 22/20 A3007 RMK A01 T02210195  RH  086%=      5-min Rain = 0
KPD2 131322Z 00000KT 22/20 A3007 RMK A01 T02210195  RH  085%=      5-min Rain = 0
KPD2 131323Z 31001KT 22/20 A3007 RMK A01 T02220195  RH  084%=      5-min Rain = 0
KPD2 131324Z 30002KT 22/19 A3007 RMK A01 T02230194  RH  084%=      5-min Rain = 0
KPD2 131325Z 29003KT 22/19 A3007 RMK A01 T02240194  RH  083%=      5-min Rain = 0
KPD2 131326Z 30003KT 22/19 A3007 RMK A01 T02240194  RH  083%=      5-min Rain = 0
KPD2 131327Z 32001KT 23/19 A3007 RMK A01 T02250194  RH  083%=      5-min Rain = 0
KPD2 131328Z 34002KT 23/19 A3007 RMK A01 T02250194  RH  083%=      5-min Rain = 0
KPD2 131329Z 31003KT 23/20 A3007 RMK A01 T02260195  RH  083%=      5-min Rain = 0
KPD2 131330Z 30001KT 23/20 A3007 RMK A01 T02260196  RH  083%=      5-min Rain = 0
KPD2 131331Z 29002KT 23/20 A3007 RMK A01 T02270196  RH  083%=      5-min Rain = 0
KPD2 131332Z 28002KT 23/20 A3007 RMK A01 T02290197  RH  082%=      5-min Rain = 0
KPD2 131333Z 28001KT 23/20 A3007 RMK A01 T02290196  RH  081%=      5-min Rain = 0
KPD2 131334Z 28002KT 23/20 A3007 RMK A01 T02300195  RH  081%=      5-min Rain = 0
KPD2 131335Z 28002KT 23/19 A3007 RMK A01 T02300193  RH  080%=      5-min Rain = 0
KPD2 131336Z 25001KT 23/19 A3007 RMK A01 T02300193  RH  080%=      5-min Rain = 0
KPD2 131337Z 27001KT 23/19 A3007 RMK A01 T02300194  RH  080%=      5-min Rain = 0
KPD2 131338Z 28001KT 23/19 A3007 RMK A01 T02310194  RH  080%=      5-min Rain = 0
KPD2 131339Z 24002KT 23/19 A3007 RMK A01 T02310194  RH  079%=      5-min Rain = 0
KPD2 131340Z 28003KT 23/19 A3007 RMK A01 T02320194  RH  079%=      5-min Rain = 0
KPD2 131341Z 32002KT 23/19 A3007 RMK A01 T02320194  RH  079%=      5-min Rain = 0
KPD2 131342Z 29002KT 23/20 A3007 RMK A01 T02330196  RH  079%=      5-min Rain = 0
KPD2 131343Z 33002KT 23/20 A3007 RMK A01 T02340195  RH  079%=      5-min Rain = 0
KPD2 131344Z 01002KT 24/20 A3007 RMK A01 T02350196  RH  078%=      5-min Rain = 0
KPD2 131345Z 01002KT 24/20 A3007 RMK A01 T02350195  RH  078%=      5-min Rain = 0
KPD2 131346Z 33002KT 24/19 A3007 RMK A01 T02350194  RH  078%=      5-min Rain = 0
KPD2 131347Z 32001KT 24/19 A3007 RMK A01 T02350194  RH  078%=      5-min Rain = 0
KPD2 131348Z 33002KT 24/19 A3007 RMK A01 T02350194  RH  078%=      5-min Rain = 0
KPD2 131349Z 31003KT 24/19 A3007 RMK A01 T02360194  RH  077%=      5-min Rain = 0
KPD2 131350Z 31002KT 24/19 A3007 RMK A01 T02350193  RH  077%=      5-min Rain = 0
KPD2 131351Z 30003KT 24/19 A3008 RMK A01 T02360194  RH  077%=      5-min Rain = 0
KPD2 131352Z 27003KT 24/20 A3008 RMK A01 T02360195  RH  077%=      5-min Rain = 0
KPD2 131353Z 28002KT 24/20 A3008 RMK A01 T02380195  RH  077%=      5-min Rain = 0
KPD2 131354Z 31003KT 24/20 A3008 RMK A01 T02380195  RH  076%=      5-min Rain = 0
KPD2 131355Z 33003KT 24/19 A3008 RMK A01 T02380194  RH  076%=      5-min Rain = 0
KPD2 131356Z 32003KT 24/19 A3008 RMK A01 T02390194  RH  076%=      5-min Rain = 0
KPD2 131357Z 29003KT 24/20 A3008 RMK A01 T02390195  RH  076%=      5-min Rain = 0
KPD2 131358Z 29003KT 24/20 A3008 RMK A01 T02400196  RH  076%=      5-min Rain = 0
KPD2 131359Z 28004KT 24/20 A3008 RMK A01 T02420197  RH  076%=      5-min Rain = 0
KPD2 131400Z 28004KT 24/20 A3008 RMK A01 T02430195  RH  075%=      5-min Rain = 0
KPD2 131401Z 30004KT 24/20 A3008 RMK A01 T02430196  RH  075%=      5-min Rain = 0
KPD2 131402Z 28004KT 24/20 A3008 RMK A01 T02430197  RH  075%=      5-min Rain = 0
KPD2 131403Z 30003KT 24/20 A3008 RMK A01 T02440197  RH  075%=      5-min Rain = 0
KPD2 131404Z 29002KT 25/20 A3008 RMK A01 T02460199  RH  075%=      5-min Rain = 0
KPD2 131405Z 29002KT 25/20 A3008 RMK A01 T02480200  RH  074%=      5-min Rain = 0
KPD2 131406Z 29004KT 25/20 A3008 RMK A01 T02490199  RH  074%=      5-min Rain = 0
KPD2 131407Z 29004KT 25/20 A3008 RMK A01 T02490198  RH  073%=      5-min Rain = 0
KPD2 131408Z 29003KT 25/20 A3008 RMK A01 T02490198  RH  073%=      5-min Rain = 0
KPD2 131409Z 26001KT 25/20 A3008 RMK A01 T02490199  RH  074%=      5-min Rain = 0
KPD2 131410Z 28004KT 25/20 A3008 RMK A01 T02500199  RH  073%=      5-min Rain = 0
KPD2 131411Z 26003KT 25/20 A3008 RMK A01 T02510198  RH  072%=      5-min Rain = 0
KPD2 131412Z 28005KT 25/20 A3008 RMK A01 T02510199  RH  073%=      5-min Rain = 0
KPD2 131413Z 32004KT 25/20 A3009 RMK A01 T02520198  RH  072%=      5-min Rain = 0
KPD2 131414Z 32006KT 25/20 A3009 RMK A01 T02530199  RH  072%=      5-min Rain = 0
KPD2 131415Z 31006KT 26/20 A3009 RMK A01 T02550197  RH  070%=      5-min Rain = 0
KPD2 131416Z 32003KT 26/20 A3009 RMK A01 T02550197  RH  071%=      5-min Rain = 0
KPD2 131417Z 32005KT 26/20 A3009 RMK A01 T02550196  RH  070%=      5-min Rain = 0
KPD2 131418Z 34006KT 26/20 A3009 RMK A01 T02550195  RH  069%=      5-min Rain = 0
KPD2 131419Z 35005KT 26/19 A3009 RMK A01 T02550193  RH  069%=      5-min Rain = 0
KPD2 131420Z 34004KT 26/20 A3009 RMK A01 T02550195  RH  069%=      5-min Rain = 0
KPD2 131421Z 35005KT 26/20 A3009 RMK A01 T02550196  RH  070%=      5-min Rain = 0
KPD2 131422Z 35004KT 26/20 A3009 RMK A01 T02560196  RH  069%=      5-min Rain = 0
KPD2 131423Z 35005KT 26/20 A3009 RMK A01 T02570195  RH  069%=      5-min Rain = 0
KPD2 131424Z 35007KT 26/20 A3009 RMK A01 T02570196  RH  069%=      5-min Rain = 0
KPD2 131425Z 35006KT 26/20 A3009 RMK A01 T02570197  RH  070%=      5-min Rain = 0
KPD2 131426Z 35006KT 26/20 A3009 RMK A01 T02570197  RH  070%=      5-min Rain = 0
KPD2 131427Z 36005KT 26/20 A3009 RMK A01 T02570197  RH  069%=      5-min Rain = 0
KPD2 131428Z 34004KT 26/20 A3009 RMK A01 T02570196  RH  069%=      5-min Rain = 0
KPD2 131429Z 34003KT 26/20 A3009 RMK A01 T02580196  RH  068%=      5-min Rain = 0
KPD2 131430Z 36004KT 26/20 A3009 RMK A01 T02580197  RH  069%=      5-min Rain = 0
KPD2 131431Z 34003KT 26/20 A3009 RMK A01 T02600197  RH  068%=      5-min Rain = 0
KPD2 131432Z 00005KT 26/20 A3009 RMK A01 T02610196  RH  068%=      5-min Rain = 0
KPD2 131433Z 02006KT 26/20 A3009 RMK A01 T02610197  RH  068%=      5-min Rain = 0
KPD2 131434Z 35004KT 26/20 A3009 RMK A01 T02630198  RH  067%=      5-min Rain = 0
KPD2 131435Z 35004KT 26/20 A3009 RMK A01 T02630198  RH  067%=      5-min Rain = 0
KPD2 131436Z 00004KT 26/20 A3009 RMK A01 T02640199  RH  068%=      5-min Rain = 0
KPD2 131437Z 01004KT 27/20 A3009 RMK A01 T02670199  RH  067%=      5-min Rain = 0
KPD2 131438Z 03005KT 27/20 A3009 RMK A01 T02690199  RH  066%=      5-min Rain = 0
KPD2 131439Z 35006KT 27/20 A3009 RMK A01 T02700197  RH  064%=      5-min Rain = 0
KPD2 131440Z 33006KT 27/20 A3009 RMK A01 T02680195  RH  064%=      5-min Rain = 0
KPD2 131441Z 34007KT 27/20 A3009 RMK A01 T02650195  RH  065%=      5-min Rain = 0
KPD2 131442Z 34006KT 26/20 A3009 RMK A01 T02640195  RH  066%=      5-min Rain = 0
KPD2 131443Z 35006KT 26/20 A3009 RMK A01 T02630196  RH  066%=      5-min Rain = 0
KPD2 131444Z 34003KT 26/20 A3009 RMK A01 T02640196  RH  066%=      5-min Rain = 0
KPD2 131445Z 35005KT 27/20 A3009 RMK A01 T02650197  RH  066%=      5-min Rain = 0
KPD2 131446Z 36003KT 27/20 A3009 RMK A01 T02660197  RH  066%=      5-min Rain = 0
KPD2 131447Z 33003KT 27/20 A3009 RMK A01 T02670197  RH  065%=      5-min Rain = 0
KPD2 131448Z 33006KT 27/20 A3009 RMK A01 T02670195  RH  064%=      5-min Rain = 0
KPD2 131449Z 35006KT 27/20 A3009 RMK A01 T02660195  RH  065%=      5-min Rain = 0
KPD2 131450Z 34003KT 27/20 A3009 RMK A01 T02660195  RH  065%=      5-min Rain = 0
KPD2 131451Z 33004KT 27/20 A3009 RMK A01 T02660195  RH  065%=      5-min Rain = 0
KPD2 131452Z 35005KT 27/20 A301 RMK A01 T02670196  RH  065%=      5-min Rain = 0
KPD2 131453Z 33005KT 27/20 A301 RMK A01 T02680196  RH  064%=      5-min Rain = 0
KPD2 131454Z 01007KT 27/20 A301 RMK A01 T02690196  RH  064%=      5-min Rain = 0
KPD2 131455Z 35003KT 27/20 A301 RMK A01 T02690196  RH  064%=      5-min Rain = 0
KPD2 131456Z 00005KT 27/20 A301 RMK A01 T02700196  RH  064%=      5-min Rain = 0
KPD2 131457Z 35005KT 27/20 A301 RMK A01 T02710196  RH  064%=      5-min Rain = 0
KPD2 131458Z 35004KT 27/20 A301 RMK A01 T02720197  RH  064%=      5-min Rain = 0
KPD2 131459Z 00002KT 27/20 A301 RMK A01 T02730197  RH  063%=      5-min Rain = 0
KPD2 131500Z 01004KT 27/20 A3009 RMK A01 T02740197  RH  063%=      5-min Rain = 0
KPD2 131501Z 36003KT 28/19 A3009 RMK A01 T02760194  RH  061%=      5-min Rain = 0
KPD2 131502Z 34005KT 28/20 A3009 RMK A01 T02750195  RH  062%=      5-min Rain = 0
KPD2 131503Z 34004KT 27/20 A3009 RMK A01 T02740197  RH  063%=      5-min Rain = 0
KPD2 131504Z 31005KT 27/20 A3009 RMK A01 T02740196  RH  062%=      5-min Rain = 0
KPD2 131505Z 32005KT 27/20 A3009 RMK A01 T02740195  RH  062%=      5-min Rain = 0
KPD2 131506Z 31003KT 27/19 A3009 RMK A01 T02730194  RH  062%=      5-min Rain = 0
KPD2 131507Z 30003KT 27/19 A3009 RMK A01 T02720194  RH  062%=      5-min Rain = 0
KPD2 131508Z 32002KT 27/19 A3009 RMK A01 T02720193  RH  062%=      5-min Rain = 0
KPD2 131509Z 30002KT 27/19 A3009 RMK A01 T02730193  RH  062%=      5-min Rain = 0
KPD2 131510Z 32002KT 27/19 A3009 RMK A01 T02740192  RH  061%=      5-min Rain = 0
KPD2 131511Z 35002KT 28/19 A3009 RMK A01 T02750192  RH  061%=      5-min Rain = 0
KPD2 131512Z 00003KT 28/19 A3009 RMK A01 T02760192  RH  060%=      5-min Rain = 0
KPD2 131513Z 01005KT 28/19 A3009 RMK A01 T02780194  RH  060%=      5-min Rain = 0
KPD2 131514Z 02003KT 28/19 A3009 RMK A01 T02810194  RH  059%=      5-min Rain = 0
KPD2 131515Z 08002KT 28/19 A3009 RMK A01 T02810193  RH  059%=      5-min Rain = 0
KPD2 131516Z 03002KT 28/20 A3009 RMK A01 T02820195  RH  059%=      5-min Rain = 0
KPD2 131517Z 33003KT 28/20 A3009 RMK A01 T02840196  RH  059%=      5-min Rain = 0
KPD2 131518Z 31004KT 29/19 A3009 RMK A01 T02860194  RH  058%=      5-min Rain = 0
KPD2 131519Z 32003KT 29/19 A3009 RMK A01 T02850193  RH  058%=      5-min Rain = 0
KPD2 131520Z 33001KT 28/19 A3009 RMK A01 T02830192  RH  057%=      5-min Rain = 0
KPD2 131521Z 28001KT 28/19 A3009 RMK A01 T02820192  RH  058%=      5-min Rain = 0
KPD2 131522Z 24002KT 28/19 A3009 RMK A01 T02830193  RH  058%=      5-min Rain = 0
KPD2 131523Z 26002KT 28/19 A3009 RMK A01 T02840194  RH  058%=      5-min Rain = 0
KPD2 131524Z 27002KT 29/19 A3009 RMK A01 T02860194  RH  058%=      5-min Rain = 0
KPD2 131525Z 26002KT 29/19 A3009 RMK A01 T02860193  RH  057%=      5-min Rain = 0
KPD2 131526Z 28003KT 29/19 A3009 RMK A01 T02860194  RH  057%=      5-min Rain = 0
KPD2 131527Z 29001KT 29/19 A3009 RMK A01 T02860193  RH  057%=      5-min Rain = 0
KPD2 131528Z 35002KT 29/19 A3009 RMK A01 T02860193  RH  057%=      5-min Rain = 0
KPD2 131529Z 35002KT 29/19 A3009 RMK A01 T02860194  RH  057%=      5-min Rain = 0
KPD2 131530Z 00003KT 29/19 A3009 RMK A01 T02870191  RH  056%=      5-min Rain = 0
KPD2 131531Z 01001KT 29/19 A3009 RMK A01 T02860190  RH  056%=      5-min Rain = 0
KPD2 131532Z 23000KT 29/19 A301 RMK A01 T02850191  RH  057%=      5-min Rain = 0
KPD2 131533Z 29000KT 29/19 A301 RMK A01 T02860191  RH  056%=      5-min Rain = 0
KPD2 131534Z 26000KT 29/19 A301 RMK A01 T02860190  RH  056%=      5-min Rain = 0
KPD2 131535Z 18001KT 29/19 A301 RMK A01 T02860191  RH  056%=      5-min Rain = 0
KPD2 131536Z 14001KT 29/19 A301 RMK A01 T02860190  RH  056%=      5-min Rain = 0
KPD2 131537Z 12002KT 29/19 A301 RMK A01 T02870191  RH  056%=      5-min Rain = 0
KPD2 131538Z 10001KT 29/19 A301 RMK A01 T02890189  RH  055%=      5-min Rain = 0
KPD2 131539Z 07001KT 29/19 A3009 RMK A01 T02890189  RH  055%=      5-min Rain = 0
KPD2 131540Z 12001KT 29/19 A3009 RMK A01 T02900190  RH  055%=      5-min Rain = 0
KPD2 131541Z 12003KT 29/19 A3009 RMK A01 T02910190  RH  054%=      5-min Rain = 0
KPD2 131542Z 15003KT 29/19 A3009 RMK A01 T02920188  RH  054%=      5-min Rain = 0
KPD2 131543Z 13003KT 29/19 A3009 RMK A01 T02920188  RH  054%=      5-min Rain = 0
KPD2 131544Z 14002KT 29/19 A3009 RMK A01 T02910189  RH  054%=      5-min Rain = 0
KPD2 131545Z 14001KT 29/19 A3009 RMK A01 T02910187  RH  054%=      5-min Rain = 0
KPD2 131546Z 11002KT 29/19 A3009 RMK A01 T02900189  RH  054%=      5-min Rain = 0
KPD2 131547Z 11005KT 29/19 A3009 RMK A01 T02920190  RH  054%=      5-min Rain = 0
KPD2 131548Z 10005KT 30/19 A3009 RMK A01 T02950190  RH  053%=      5-min Rain = 0
KPD2 131549Z 11004KT 30/19 A3009 RMK A01 T02960190  RH  053%=      5-min Rain = 0
KPD2 131550Z 11002KT 30/19 A3009 RMK A01 T02980190  RH  052%=      5-min Rain = 0
KPD2 131551Z 10004KT 30/19 A3009 RMK A01 T02980189  RH  052%=      5-min Rain = 0
KPD2 131552Z 13002KT 30/19 A3009 RMK A01 T02980189  RH  052%=      5-min Rain = 0
KPD2 131553Z 11003KT 30/19 A3009 RMK A01 T02970189  RH  052%=      5-min Rain = 0
KPD2 131554Z 09003KT 30/19 A3009 RMK A01 T02980189  RH  052%=      5-min Rain = 0
KPD2 131555Z 15001KT 30/19 A3009 RMK A01 T02980188  RH  052%=      5-min Rain = 0
KPD2 131556Z 12002KT 30/19 A3009 RMK A01 T02970188  RH  052%=      5-min Rain = 0
KPD2 131557Z 11001KT 30/19 A3009 RMK A01 T02970189  RH  052%=      5-min Rain = 0
KPD2 131558Z 15001KT 30/19 A3009 RMK A01 T02960188  RH  052%=      5-min Rain = 0
KPD2 131559Z 15000KT 30/19 A3009 RMK A01 T02960188  RH  052%=      5-min Rain = 0
KPD2 131600Z 15003KT 30/19 A301 RMK A01 T02950189  RH  053%=      5-min Rain = 0
KPD2 131601Z 15006KT 30/19 A301 RMK A01 T02970190  RH  053%=      5-min Rain = 0
KPD2 131602Z 13004KT 30/19 A301 RMK A01 T02980190  RH  052%=      5-min Rain = 0
KPD2 131603Z 15004KT 30/19 A301 RMK A01 T03000191  RH  052%=      5-min Rain = 0
KPD2 131604Z 15003KT 30/19 A301 RMK A01 T03000190  RH  052%=      5-min Rain = 0
KPD2 131605Z 14005KT 30/19 A301 RMK A01 T02990191  RH  052%=      5-min Rain = 0
KPD2 131606Z 18001KT 30/19 A301 RMK A01 T02980190  RH  053%=      5-min Rain = 0
KPD2 131607Z 22002KT 30/19 A301 RMK A01 T02960190  RH  053%=      5-min Rain = 0
KPD2 131608Z 16002KT 30/19 A301 RMK A01 T02960190  RH  053%=      5-min Rain = 0
KPD2 131609Z 12003KT 30/19 A301 RMK A01 T02950189  RH  053%=      5-min Rain = 0
KPD2 131610Z 10005KT 29/19 A301 RMK A01 T02940188  RH  053%=      5-min Rain = 0
KPD2 131611Z 09005KT 29/19 A301 RMK A01 T02940189  RH  053%=      5-min Rain = 0
KPD2 131612Z 10004KT 30/19 A301 RMK A01 T02970191  RH  053%=      5-min Rain = 0
KPD2 131613Z 07002KT 30/19 A301 RMK A01 T03000188  RH  051%=      5-min Rain = 0
KPD2 131614Z 06002KT 30/19 A301 RMK A01 T03010189  RH  051%=      5-min Rain = 0
KPD2 131615Z 06002KT 30/19 A301 RMK A01 T03020189  RH  051%=      5-min Rain = 0
KPD2 131616Z 13005KT 30/19 A301 RMK A01 T03020189  RH  051%=      5-min Rain = 0
KPD2 131617Z 12004KT 30/19 A301 RMK A01 T03030190  RH  051%=      5-min Rain = 0
KPD2 131618Z 10005KT 30/19 A301 RMK A01 T03040191  RH  051%=      5-min Rain = 0
KPD2 131619Z 08001KT 30/19 A301 RMK A01 T03040192  RH  051%=      5-min Rain = 0
KPD2 131620Z 25002KT 30/19 A301 RMK A01 T03040191  RH  051%=      5-min Rain = 0
KPD2 131621Z 26003KT 30/19 A301 RMK A01 T03030190  RH  051%=      5-min Rain = 0
KPD2 131622Z 16002KT 30/19 A301 RMK A01 T03010191  RH  052%=      5-min Rain = 0
KPD2 131623Z 13007KT 30/19 A301 RMK A01 T03010190  RH  051%=      5-min Rain = 0
KPD2 131624Z 10004KT 30/19 A301 RMK A01 T03030190  RH  051%=      5-min Rain = 0
KPD2 131625Z 09004KT 31/19 A301 RMK A01 T03050190  RH  050%=      5-min Rain = 0
KPD2 131626Z 12003KT 31/19 A301 RMK A01 T03060190  RH  050%=      5-min Rain = 0
KPD2 131627Z 16004KT 31/19 A301 RMK A01 T03060190  RH  050%=      5-min Rain = 0
KPD2 131628Z 16003KT 31/19 A301 RMK A01 T03050189  RH  050%=      5-min Rain = 0
KPD2 131629Z 13003KT 31/19 A301 RMK A01 T03050190  RH  050%=      5-min Rain = 0
KPD2 131630Z 10003KT 30/19 A301 RMK A01 T03040191  RH  051%=      5-min Rain = 0
KPD2 131631Z 10002KT 31/19 A301 RMK A01 T03070194  RH  051%=      5-min Rain = 0
KPD2 131632Z 11003KT 31/19 A301 RMK A01 T03090192  RH  050%=      5-min Rain = 0
KPD2 131633Z 13001KT 31/19 A301 RMK A01 T03070192  RH  050%=      5-min Rain = 0
KPD2 131634Z 02002KT 31/19 A301 RMK A01 T03070194  RH  051%=      5-min Rain = 0
KPD2 131635Z 05001KT 31/20 A301 RMK A01 T03100195  RH  051%=      5-min Rain = 0
KPD2 131636Z 11002KT 31/20 A301 RMK A01 T03130195  RH  050%=      5-min Rain = 0
KPD2 131637Z 11001KT 32/20 A301 RMK A01 T03160196  RH  049%=      5-min Rain = 0
KPD2 131638Z 11005KT 32/19 A301 RMK A01 T03160193  RH  048%=      5-min Rain = 0
KPD2 131639Z 11005KT 32/19 A301 RMK A01 T03150190  RH  048%=      5-min Rain = 0
KPD2 131640Z 10005KT 32/19 A301 RMK A01 T03150190  RH  048%=      5-min Rain = 0
KPD2 131641Z 07002KT 32/19 A301 RMK A01 T03150189  RH  047%=      5-min Rain = 0
KPD2 131642Z 03004KT 31/19 A301 RMK A01 T03130191  RH  048%=      5-min Rain = 0
KPD2 131643Z 01003KT 31/19 A301 RMK A01 T03120193  RH  049%=      5-min Rain = 0
KPD2 131644Z 12001KT 31/19 A301 RMK A01 T03130193  RH  049%=      5-min Rain = 0
KPD2 131645Z 16003KT 31/19 A301 RMK A01 T03130191  RH  048%=      5-min Rain = 0
KPD2 131646Z 17004KT 31/19 A301 RMK A01 T03130191  RH  048%=      5-min Rain = 0
KPD2 131647Z 17004KT 31/19 A301 RMK A01 T03130189  RH  048%=      5-min Rain = 0
KPD2 131648Z 15002KT 31/19 A301 RMK A01 T03120188  RH  048%=      5-min Rain = 0
KPD2 131649Z 15001KT 31/19 A301 RMK A01 T03110188  RH  048%=      5-min Rain = 0
KPD2 131650Z 15003KT 31/19 A301 RMK A01 T03110190  RH  049%=      5-min Rain = 0
KPD2 131651Z 07004KT 31/19 A301 RMK A01 T03120191  RH  049%=      5-min Rain = 0
KPD2 131652Z 07003KT 31/19 A301 RMK A01 T03120194  RH  049%=      5-min Rain = 0
KPD2 131653Z 03002KT 32/20 A301 RMK A01 T03150196  RH  049%=      5-min Rain = 0
KPD2 131654Z 06002KT 32/19 A301 RMK A01 T03180194  RH  048%=      5-min Rain = 0
KPD2 131655Z 10005KT 32/19 A301 RMK A01 T03190194  RH  048%=      5-min Rain = 0
KPD2 131656Z 12002KT 32/19 A301 RMK A01 T03200190  RH  046%=      5-min Rain = 0
KPD2 131657Z 12007KT 32/19 A301 RMK A01 T03210191  RH  046%=      5-min Rain = 0
KPD2 131658Z 10006KT 32/19 A301 RMK A01 T03240189  RH  045%=      5-min Rain = 0
KPD2 131659Z 09006KT 32/19 A301 RMK A01 T03230188  RH  045%=      5-min Rain = 0
KPD2 131700Z 10002KT 32/19 A301 RMK A01 T03210186  RH  045%=      5-min Rain = 0
KPD2 131701Z 08002KT 32/19 A301 RMK A01 T03180186  RH  046%=      5-min Rain = 0
KPD2 131702Z 11003KT 32/19 A301 RMK A01 T03170187  RH  046%=      5-min Rain = 0
KPD2 131703Z 13005KT 32/19 A301 RMK A01 T03180189  RH  046%=      5-min Rain = 0
KPD2 131704Z 13006KT 32/19 A301 RMK A01 T03190189  RH  046%=      5-min Rain = 0
KPD2 131705Z 12005G11KT 32/19 A301 RMK A01 T03210191  RH  046%=      5-min Rain = 0
KPD2 131706Z 11007KT 32/19 A301 RMK A01 T03240191  RH  046%=      5-min Rain = 0
KPD2 131707Z 10005KT 33/19 A301 RMK A01 T03250190  RH  045%=      5-min Rain = 0
KPD2 131708Z 10004KT 33/19 A301 RMK A01 T03250190  RH  045%=      5-min Rain = 0
KPD2 131709Z 15003KT 33/19 A301 RMK A01 T03250188  RH  044%=      5-min Rain = 0
KPD2 131710Z 12002KT 32/19 A301 RMK A01 T03230187  RH  045%=      5-min Rain = 0
KPD2 131711Z 14005KT 32/19 A301 RMK A01 T03210188  RH  045%=      5-min Rain = 0
KPD2 131712Z 16006KT 32/19 A301 RMK A01 T03150187  RH  046%=      5-min Rain = 0
KPD2 131713Z 10007KT 31/19 A301 RMK A01 T03120188  RH  048%=      5-min Rain = 0
KPD2 131714Z 06006KT 31/19 A301 RMK A01 T03120186  RH  047%=      5-min Rain = 0
KPD2 131715Z 04005KT 31/19 A301 RMK A01 T03130188  RH  047%=      5-min Rain = 0
KPD2 131716Z 09005KT 31/19 A301 RMK A01 T03140188  RH  047%=      5-min Rain = 0
KPD2 131717Z 09004G9KT 32/19 A301 RMK A01 T03160188  RH  047%=      5-min Rain = 0
KPD2 131718Z 12008KT 32/19 A301 RMK A01 T03180186  RH  046%=      5-min Rain = 0
KPD2 131719Z 11008KT 32/19 A301 RMK A01 T03190186  RH  045%=      5-min Rain = 0
KPD2 131720Z 09006KT 32/19 A301 RMK A01 T03210187  RH  045%=      5-min Rain = 0
KPD2 131721Z 09005KT 32/19 A301 RMK A01 T03240188  RH  044%=      5-min Rain = 0
KPD2 131722Z 11004KT 33/19 A301 RMK A01 T03260187  RH  044%=      5-min Rain = 0
KPD2 131723Z 14005KT 33/19 A301 RMK A01 T03250188  RH  044%=      5-min Rain = 0
KPD2 131724Z 12006KT 32/19 A301 RMK A01 T03230187  RH  045%=      5-min Rain = 0
KPD2 131725Z 11006G11KT 32/19 A301 RMK A01 T03230189  RH  045%=      5-min Rain = 0
KPD2 131726Z 13002KT 33/19 A301 RMK A01 T03250187  RH  044%=      5-min Rain = 0
KPD2 131727Z 17003KT 33/19 A301 RMK A01 T03260187  RH  044%=      5-min Rain = 0
KPD2 131728Z 12003KT 32/19 A301 RMK A01 T03240187  RH  044%=      5-min Rain = 0
KPD2 131729Z 10003G8KT 32/19 A301 RMK A01 T03220188  RH  045%=      5-min Rain = 0
KPD2 131730Z 12005KT 32/19 A301 RMK A01 T03210189  RH  045%=      5-min Rain = 0
KPD2 131731Z 11004KT 32/19 A301 RMK A01 T03220189  RH  045%=      5-min Rain = 0
KPD2 131732Z 08001KT 32/19 A301 RMK A01 T03240188  RH  045%=      5-min Rain = 0
KPD2 131733Z 16003KT 32/19 A301 RMK A01 T03240187  RH  044%=      5-min Rain = 0
KPD2 131734Z 10001KT 32/19 A301 RMK A01 T03240187  RH  044%=      5-min Rain = 0
KPD2 131735Z 07002KT 32/19 A301 RMK A01 T03240185  RH  044%=      5-min Rain = 0
KPD2 131736Z 05006KT 32/19 A301 RMK A01 T03240185  RH  044%=      5-min Rain = 0
KPD2 131737Z 09003KT 32/19 A301 RMK A01 T03230186  RH  044%=      5-min Rain = 0
KPD2 131738Z 15003KT 32/18 A301 RMK A01 T03220184  RH  044%=      5-min Rain = 0
KPD2 131739Z 21002KT 32/18 A3009 RMK A01 T03220184  RH  044%=      5-min Rain = 0
KPD2 131740Z 29002KT 32/18 A3009 RMK A01 T03230183  RH  044%=      5-min Rain = 0
KPD2 131741Z 02003KT 32/19 A3009 RMK A01 T03200186  RH  045%=      5-min Rain = 0
KPD2 131742Z 04006KT 32/19 A3009 RMK A01 T03190188  RH  046%=      5-min Rain = 0
KPD2 131743Z 07005KT 32/19 A3009 RMK A01 T03220189  RH  045%=      5-min Rain = 0
KPD2 131744Z 13005KT 33/19 A3009 RMK A01 T03250189  RH  044%=      5-min Rain = 0
KPD2 131745Z 14002KT 33/19 A3009 RMK A01 T03260189  RH  044%=      5-min Rain = 0
KPD2 131746Z 05004KT 33/19 A301 RMK A01 T03300191  RH  044%=      5-min Rain = 0
KPD2 131747Z 31001KT 33/19 A3009 RMK A01 T03310189  RH  043%=      5-min Rain = 0
KPD2 131748Z 16002KT 33/19 A3009 RMK A01 T03260186  RH  044%=      5-min Rain = 0
KPD2 131749Z 14002KT 32/19 A3009 RMK A01 T03240187  RH  044%=      5-min Rain = 0
KPD2 131750Z 15001KT 32/19 A3009 RMK A01 T03220187  RH  045%=      5-min Rain = 0
KPD2 131751Z 09002KT 32/19 A3009 RMK A01 T03220188  RH  045%=      5-min Rain = 0
KPD2 131752Z 12003G8KT 33/19 A3009 RMK A01 T03250189  RH  045%=      5-min Rain = 0
KPD2 131753Z 13007KT 33/19 A3009 RMK A01 T03270186  RH  043%=      5-min Rain = 0
KPD2 131754Z 13006KT 33/19 A3009 RMK A01 T03270186  RH  043%=      5-min Rain = 0
KPD2 131755Z 12005KT 33/19 A3009 RMK A01 T03280187  RH  043%=      5-min Rain = 0
KPD2 131756Z 08006G15KT 33/19 A3009 RMK A01 T03320189  RH  043%=      5-min Rain = 0
KPD2 131757Z 05005KT 34/19 A3009 RMK A01 T03350186  RH  041%=      5-min Rain = 0
KPD2 131758Z 10006KT 33/19 A3009 RMK A01 T03320186  RH  042%=      5-min Rain = 0
KPD2 131759Z 09006KT 33/19 A3009 RMK A01 T03320186  RH  042%=      5-min Rain = 0
KPD2 131800Z 10006KT 33/19 A3009 RMK A01 T03320188  RH  043%=      5-min Rain = 0
KPD2 131801Z 12009KT 33/19 A3009 RMK A01 T03340190  RH  043%=      5-min Rain = 0
KPD2 131802Z 11008KT 34/19 A3009 RMK A01 T03390191  RH  042%=      5-min Rain = 0
KPD2 131803Z 09004KT 34/19 A3009 RMK A01 T03420189  RH  040%=      5-min Rain = 0
KPD2 131804Z 11003KT 34/19 A3009 RMK A01 T03400188  RH  041%=      5-min Rain = 0
KPD2 131805Z 09007KT 34/19 A3009 RMK A01 T03370188  RH  041%=      5-min Rain = 0
KPD2 131806Z 06005KT 33/19 A3009 RMK A01 T03320187  RH  042%=      5-min Rain = 0
KPD2 131807Z 06002KT 33/18 A3009 RMK A01 T03260183  RH  043%=      5-min Rain = 0
KPD2 131808Z 02003KT 32/19 A3009 RMK A01 T03240185  RH  044%=      5-min Rain = 0
KPD2 131809Z 09004KT 33/19 A3009 RMK A01 T03260186  RH  043%=      5-min Rain = 0
KPD2 131810Z 11005KT 33/19 A3009 RMK A01 T03290186  RH  043%=      5-min Rain = 0
KPD2 131811Z 09002KT 33/18 A3009 RMK A01 T03330184  RH  041%=      5-min Rain = 0
KPD2 131812Z 03004G9KT 34/19 A3009 RMK A01 T03350185  RH  041%=      5-min Rain = 0
KPD2 131813Z 02008KT 34/18 A3009 RMK A01 T03360183  RH  040%=      5-min Rain = 0
KPD2 131814Z 05005KT 34/19 A3009 RMK A01 T03360185  RH  041%=      5-min Rain = 0
KPD2 131815Z 09003KT 34/18 A3009 RMK A01 T03380184  RH  040%=      5-min Rain = 0
KPD2 131816Z 12002KT 34/18 A3009 RMK A01 T03380182  RH  040%=      5-min Rain = 0
KPD2 131817Z 15006KT 34/18 A3009 RMK A01 T03360183  RH  040%=      5-min Rain = 0
KPD2 131818Z 13007KT 34/18 A3009 RMK A01 T03360183  RH  040%=      5-min Rain = 0
KPD2 131819Z 11007KT 33/18 A3009 RMK A01 T03340181  RH  040%=      5-min Rain = 0
KPD2 131820Z 12004G9KT 33/18 A3009 RMK A01 T03330180  RH  040%=      5-min Rain = 0
KPD2 131821Z 08009KT 33/18 A3009 RMK A01 T03330179  RH  040%=      5-min Rain = 0
KPD2 131822Z 06005KT 33/18 A3009 RMK A01 T03340179  RH  040%=      5-min Rain = 0
KPD2 131823Z 08002KT 33/18 A3009 RMK A01 T03330181  RH  041%=      5-min Rain = 0
KPD2 131824Z 20000KT 34/18 A3009 RMK A01 T03350183  RH  041%=      5-min Rain = 0
KPD2 131825Z 16002KT 34/18 A3008 RMK A01 T03390183  RH  040%=      5-min Rain = 0
KPD2 131826Z 13003KT 34/18 A3008 RMK A01 T03390183  RH  040%=      5-min Rain = 0
KPD2 131827Z 18002KT 34/18 A3008 RMK A01 T03370184  RH  041%=      5-min Rain = 0
KPD2 131828Z 12005G11KT 34/19 A3008 RMK A01 T03370185  RH  041%=      5-min Rain = 0
KPD2 131829Z 12009KT 34/19 A3009 RMK A01 T03400186  RH  040%=      5-min Rain = 0
KPD2 131830Z 14006KT 34/19 A3009 RMK A01 T03420186  RH  040%=      5-min Rain = 0
KPD2 131831Z 13007KT 34/19 A3009 RMK A01 T03420187  RH  040%=      5-min Rain = 0
KPD2 131832Z 12007G13KT 34/19 A3009 RMK A01 T03420185  RH  040%=      5-min Rain = 0
KPD2 131833Z 10007G13KT 34/18 A3009 RMK A01 T03440182  RH  038%=      5-min Rain = 0
KPD2 131834Z 10006KT 34/18 A3009 RMK A01 T03430181  RH  038%=      5-min Rain = 0
KPD2 131835Z 09004KT 34/18 A3008 RMK A01 T03400180  RH  039%=      5-min Rain = 0
KPD2 131836Z 12005KT 34/18 A3008 RMK A01 T03390182  RH  039%=      5-min Rain = 0
KPD2 131837Z 20003KT 34/18 A3008 RMK A01 T03380181  RH  039%=      5-min Rain = 0
KPD2 131838Z 15002KT 34/18 A3008 RMK A01 T03360182  RH  040%=      5-min Rain = 0
KPD2 131839Z 15005KT 34/18 A3008 RMK A01 T03350183  RH  040%=      5-min Rain = 0
KPD2 131840Z 13006G12KT 34/19 A3008 RMK A01 T03370185  RH  040%=      5-min Rain = 0
KPD2 131841Z 11007KT 34/18 A3009 RMK A01 T03390182  RH  039%=      5-min Rain = 0
KPD2 131842Z 10009KT 34/18 A3009 RMK A01 T03410181  RH  039%=      5-min Rain = 0
KPD2 131843Z 10006KT 34/18 A3009 RMK A01 T03400184  RH  040%=      5-min Rain = 0
KPD2 131844Z 11004KT 34/19 A3009 RMK A01 T03390185  RH  040%=      5-min Rain = 0
KPD2 131845Z 10007KT 34/18 A3009 RMK A01 T03380183  RH  040%=      5-min Rain = 0
KPD2 131846Z 09009KT 34/18 A3009 RMK A01 T03390183  RH  040%=      5-min Rain = 0
KPD2 131847Z 10006KT 34/18 A3009 RMK A01 T03400180  RH  039%=      5-min Rain = 0
KPD2 131848Z 13006KT 34/18 A3008 RMK A01 T03380180  RH  039%=      5-min Rain = 0
KPD2 131849Z 08003KT 34/18 A3008 RMK A01 T03370180  RH  039%=      5-min Rain = 0
KPD2 131850Z 10004G10KT 34/18 A3008 RMK A01 T03360182  RH  040%=      5-min Rain = 0
KPD2 131851Z 13010KT 34/18 A3008 RMK A01 T03390183  RH  040%=      5-min Rain = 0
KPD2 131852Z 13006KT 34/18 A3008 RMK A01 T03400180  RH  039%=      5-min Rain = 0
KPD2 131853Z 04002KT 34/18 A3008 RMK A01 T03350181  RH  040%=      5-min Rain = 0
KPD2 131854Z 08003G9KT 34/18 A3008 RMK A01 T03350181  RH  040%=      5-min Rain = 0
KPD2 131855Z 11006KT 33/18 A3008 RMK A01 T03330180  RH  040%=      5-min Rain = 0
KPD2 131856Z 09005KT 33/18 A3008 RMK A01 T03330179  RH  040%=      5-min Rain = 0
KPD2 131857Z 09004KT 33/18 A3008 RMK A01 T03340178  RH  040%=      5-min Rain = 0
KPD2 131858Z 02004KT 34/18 A3008 RMK A01 T03370181  RH  040%=      5-min Rain = 0
KPD2 131859Z 33001KT 34/18 A3008 RMK A01 T03400179  RH  038%=      5-min Rain = 0
KPD2 131900Z 17002KT 34/18 A3008 RMK A01 T03390179  RH  039%=      5-min Rain = 0
KPD2 131901Z 16002KT 34/18 A3008 RMK A01 T03390180  RH  039%=      5-min Rain = 0
KPD2 131902Z 13007G13KT 34/18 A3008 RMK A01 T03390179  RH  039%=      5-min Rain = 0
KPD2 131903Z 14010G15KT 34/18 A3008 RMK A01 T03420178  RH  038%=      5-min Rain = 0
KPD2 131904Z 14008G13KT 34/18 A3008 RMK A01 T03420179  RH  038%=      5-min Rain = 0
KPD2 131905Z 13008KT 34/18 A3007 RMK A01 T03430179  RH  038%=      5-min Rain = 0
KPD2 131906Z 14010G16KT 35/18 A3007 RMK A01 T03450176  RH  037%=      5-min Rain = 0
KPD2 131907Z 12011KT 35/18 A3007 RMK A01 T03460177  RH  037%=      5-min Rain = 0
KPD2 131908Z 14008KT 35/18 A3007 RMK A01 T03500175  RH  036%=      5-min Rain = 0
KPD2 131909Z 15010KT 35/18 A3007 RMK A01 T03500176  RH  036%=      5-min Rain = 0
KPD2 131910Z 16006KT 35/18 A3007 RMK A01 T03470177  RH  037%=      5-min Rain = 0
KPD2 131911Z 13009G15KT 34/18 A3008 RMK A01 T03440178  RH  037%=      5-min Rain = 0
KPD2 131912Z 12005KT 34/17 A3007 RMK A01 T03440174  RH  036%=      5-min Rain = 0
KPD2 131913Z 05004KT 34/18 A3008 RMK A01 T03440176  RH  037%=      5-min Rain = 0
KPD2 131914Z 08006G11KT 35/18 A3008 RMK A01 T03450175  RH  037%=      5-min Rain = 0
KPD2 131915Z 08006G11KT 35/17 A3008 RMK A01 T03450172  RH  036%=      5-min Rain = 0
KPD2 131916Z 10008KT 35/17 A3008 RMK A01 T03450172  RH  036%=      5-min Rain = 0
KPD2 131917Z 08004KT 35/17 A3007 RMK A01 T03460173  RH  036%=      5-min Rain = 0
KPD2 131918Z 13006KT 35/17 A3007 RMK A01 T03470171  RH  035%=      5-min Rain = 0
KPD2 131919Z 12008KT 35/17 A3007 RMK A01 T03480172  RH  035%=      5-min Rain = 0
KPD2 131920Z 11009G15KT 35/17 A3007 RMK A01 T03490174  RH  036%=      5-min Rain = 0
KPD2 131921Z 10007G14KT 35/18 A3007 RMK A01 T03530175  RH  035%=      5-min Rain = 0
KPD2 131922Z 12004G10KT 35/18 A3007 RMK A01 T03530176  RH  035%=      5-min Rain = 0
KPD2 131923Z 11008KT 35/18 A3007 RMK A01 T03540176  RH  035%=      5-min Rain = 0
KPD2 131924Z 10005G12KT 35/18 A3007 RMK A01 T03540175  RH  035%=      5-min Rain = 0
KPD2 131925Z 10011KT 36/18 A3007 RMK A01 T03550176  RH  035%=      5-min Rain = 0
KPD2 131926Z 12006KT 36/18 A3007 RMK A01 T03550176  RH  035%=      5-min Rain = 0
KPD2 131927Z 13006KT 36/18 A3007 RMK A01 T03550175  RH  035%=      5-min Rain = 0
KPD2 131928Z 13003KT 35/17 A3007 RMK A01 T03500174  RH  035%=      5-min Rain = 0
KPD2 131929Z 15002KT 35/18 A3007 RMK A01 T03450175  RH  036%=      5-min Rain = 0
KPD2 131930Z 12003KT 34/18 A3007 RMK A01 T03430176  RH  037%=      5-min Rain = 0
KPD2 131931Z 12003KT 34/18 A3007 RMK A01 T03440175  RH  037%=      5-min Rain = 0
KPD2 131932Z 10002KT 35/18 A3007 RMK A01 T03450175  RH  036%=      5-min Rain = 0
KPD2 131933Z 15001KT 35/18 A3007 RMK A01 T03470177  RH  037%=      5-min Rain = 0
KPD2 131934Z 15003KT 35/18 A3007 RMK A01 T03470176  RH  036%=      5-min Rain = 0
KPD2 131935Z 18002KT 34/18 A3007 RMK A01 T03440176  RH  037%=      5-min Rain = 0
KPD2 131936Z 11005KT 34/18 A3007 RMK A01 T03410177  RH  038%=      5-min Rain = 0
KPD2 131937Z 10006KT 34/18 A3007 RMK A01 T03420177  RH  038%=      5-min Rain = 0
KPD2 131938Z 11004KT 35/18 A3007 RMK A01 T03470179  RH  037%=      5-min Rain = 0
KPD2 131939Z 10003KT 35/18 A3007 RMK A01 T03500177  RH  036%=      5-min Rain = 0
KPD2 131940Z 09005G10KT 35/18 A3007 RMK A01 T03500176  RH  036%=      5-min Rain = 0
KPD2 131941Z 10006G11KT 35/18 A3007 RMK A01 T03490175  RH  036%=      5-min Rain = 0
KPD2 131942Z 11008KT 35/18 A3007 RMK A01 T03490177  RH  036%=      5-min Rain = 0
KPD2 131943Z 10007KT 35/18 A3007 RMK A01 T03520178  RH  036%=      5-min Rain = 0
KPD2 131944Z 10006KT 36/18 A3007 RMK A01 T03570178  RH  035%=      5-min Rain = 0
KPD2 131945Z 10005KT 36/18 A3007 RMK A01 T03570177  RH  034%=      5-min Rain = 0
KPD2 131946Z 12007KT 35/18 A3007 RMK A01 T03540177  RH  035%=      5-min Rain = 0
KPD2 131947Z 17003KT 35/18 A3007 RMK A01 T03520176  RH  035%=      5-min Rain = 0
KPD2 131948Z 12002KT 35/18 A3007 RMK A01 T03480175  RH  036%=      5-min Rain = 0
KPD2 131949Z 10003KT 35/18 A3007 RMK A01 T03470178  RH  037%=      5-min Rain = 0
KPD2 131950Z 14006KT 35/18 A3007 RMK A01 T03480178  RH  037%=      5-min Rain = 0
KPD2 131951Z 14005KT 35/18 A3006 RMK A01 T03470178  RH  037%=      5-min Rain = 0
KPD2 131952Z 06003KT 35/18 A3006 RMK A01 T03470179  RH  037%=      5-min Rain = 0
KPD2 131953Z 14005KT 35/18 A3006 RMK A01 T03480179  RH  037%=      5-min Rain = 0
KPD2 131954Z 11007KT 35/18 A3006 RMK A01 T03530181  RH  036%=      5-min Rain = 0
KPD2 131955Z 09007KT 36/18 A3006 RMK A01 T03590180  RH  035%=      5-min Rain = 0
KPD2 131956Z 12007KT 36/18 A3006 RMK A01 T03600179  RH  034%=      5-min Rain = 0
KPD2 131957Z 12005KT 36/18 A3006 RMK A01 T03600179  RH  034%=      5-min Rain = 0
KPD2 131958Z 12004KT 36/18 A3006 RMK A01 T03610180  RH  035%=      5-min Rain = 0
KPD2 131959Z 09003KT 36/18 A3006 RMK A01 T03640178  RH  034%=      5-min Rain = 0
KPD2 132000Z 10005KT 36/18 A3006 RMK A01 T03640176  RH  033%=      5-min Rain = 0
KPD2 132001Z 10008KT 36/18 A3006 RMK A01 T03640178  RH  033%=      5-min Rain = 0
KPD2 132002Z 11008G14KT 37/18 A3006 RMK A01 T03660175  RH  033%=      5-min Rain = 0
KPD2 132003Z 11007G14KT 37/17 A3006 RMK A01 T03650174  RH  033%=      5-min Rain = 0
KPD2 132004Z 09008G13KT 36/17 A3006 RMK A01 T03600171  RH  033%=      5-min Rain = 0
KPD2 132005Z 08006KT 35/17 A3006 RMK A01 T03510167  RH  034%=      5-min Rain = 0
KPD2 132006Z 10005KT 34/17 A3006 RMK A01 T03440166  RH  035%=      5-min Rain = 0
KPD2 132007Z 08005KT 34/16 A3006 RMK A01 T03430164  RH  034%=      5-min Rain = 0
KPD2 132008Z 09002KT 35/17 A3006 RMK A01 T03450166  RH  034%=      5-min Rain = 0
KPD2 132009Z 12004KT 35/17 A3006 RMK A01 T03490167  RH  034%=      5-min Rain = 0
KPD2 132010Z 10004KT 35/17 A3006 RMK A01 T03530168  RH  033%=      5-min Rain = 0
KPD2 132011Z 10003KT 36/17 A3006 RMK A01 T03560168  RH  033%=      5-min Rain = 0
KPD2 132012Z 11007KT 36/17 A3006 RMK A01 T03570168  RH  033%=      5-min Rain = 0
KPD2 132013Z 08002KT 36/17 A3006 RMK A01 T03580168  RH  032%=      5-min Rain = 0
KPD2 132014Z 13002G7KT 36/17 A3006 RMK A01 T03610170  RH  032%=      5-min Rain = 0
KPD2 132015Z 11008KT 36/17 A3006 RMK A01 T03630169  RH  032%=      5-min Rain = 0
KPD2 132016Z 10006KT 36/17 A3006 RMK A01 T03610168  RH  032%=      5-min Rain = 0
KPD2 132017Z 07004KT 36/17 A3006 RMK A01 T03590168  RH  032%=      5-min Rain = 0
KPD2 132018Z 08005KT 36/17 A3006 RMK A01 T03600168  RH  032%=      5-min Rain = 0
KPD2 132019Z 14002KT 36/17 A3006 RMK A01 T03610169  RH  032%=      5-min Rain = 0
KPD2 132020Z 20001KT 36/17 A3005 RMK A01 T03590168  RH  032%=      5-min Rain = 0
KPD2 132021Z 04003KT 36/17 A3005 RMK A01 T03550167  RH  033%=      5-min Rain = 0
KPD2 132022Z 11002KT 35/17 A3005 RMK A01 T03510166  RH  033%=      5-min Rain = 0
KPD2 132023Z 12001KT 35/17 A3005 RMK A01 T03490167  RH  034%=      5-min Rain = 0
KPD2 132024Z 09004KT 35/17 A3005 RMK A01 T03490168  RH  034%=      5-min Rain = 0
KPD2 132025Z 10004KT 35/17 A3005 RMK A01 T03520169  RH  034%=      5-min Rain = 0
KPD2 132026Z 12005G10KT 35/17 A3005 RMK A01 T03520171  RH  034%=      5-min Rain = 0
KPD2 132027Z 12009KT 35/17 A3005 RMK A01 T03530172  RH  034%=      5-min Rain = 0
KPD2 132028Z 11007KT 36/17 A3005 RMK A01 T03560172  RH  034%=      5-min Rain = 0
KPD2 132029Z 10006KT 36/17 A3005 RMK A01 T03600174  RH  033%=      5-min Rain = 0
KPD2 132030Z 14006KT 36/17 A3005 RMK A01 T03630172  RH  033%=      5-min Rain = 0
KPD2 132031Z 16005KT 36/17 A3005 RMK A01 T03640172  RH  032%=      5-min Rain = 0
KPD2 132032Z 14007KT 36/17 A3005 RMK A01 T03630170  RH  032%=      5-min Rain = 0
KPD2 132033Z 13011G16KT 36/17 A3005 RMK A01 T03610171  RH  033%=      5-min Rain = 0
KPD2 132034Z 13011G17KT 36/17 A3005 RMK A01 T03610170  RH  032%=      5-min Rain = 0
KPD2 132035Z 12010KT 36/17 A3005 RMK A01 T03610171  RH  033%=      5-min Rain = 0
KPD2 132036Z 13007KT 36/17 A3005 RMK A01 T03600171  RH  033%=      5-min Rain = 0
KPD2 132037Z 14008KT 36/17 A3005 RMK A01 T03590171  RH  033%=      5-min Rain = 0
KPD2 132038Z 13007KT 36/17 A3005 RMK A01 T03570171  RH  033%=      5-min Rain = 0
KPD2 132039Z 16008G13KT 36/17 A3005 RMK A01 T03560170  RH  033%=      5-min Rain = 0
KPD2 132040Z 16007KT 36/17 A3005 RMK A01 T03550169  RH  033%=      5-min Rain = 0
KPD2 132041Z 16006KT 36/17 A3005 RMK A01 T03550169  RH  033%=      5-min Rain = 0
KPD2 132042Z 13010G15KT 36/17 A3005 RMK A01 T03550168  RH  033%=      5-min Rain = 0
KPD2 132043Z 14012KT 36/17 A3005 RMK A01 T03560170  RH  033%=      5-min Rain = 0
KPD2 132044Z 13008KT 36/17 A3005 RMK A01 T03560170  RH  033%=      5-min Rain = 0
KPD2 132045Z 11007KT 36/17 A3005 RMK A01 T03550171  RH  034%=      5-min Rain = 0
KPD2 132046Z 12006KT 36/17 A3005 RMK A01 T03560172  RH  034%=      5-min Rain = 0
KPD2 132047Z 17006KT 36/17 A3005 RMK A01 T03570171  RH  033%=      5-min Rain = 0
KPD2 132048Z 15007KT 36/17 A3005 RMK A01 T03560170  RH  033%=      5-min Rain = 0
KPD2 132049Z 12006KT 35/17 A3005 RMK A01 T03530172  RH  034%=      5-min Rain = 0
KPD2 132050Z 13004G9KT 36/17 A3005 RMK A01 T03560169  RH  033%=      5-min Rain = 0
KPD2 132051Z 14009KT 36/17 A3005 RMK A01 T03590168  RH  032%=      5-min Rain = 0
KPD2 132052Z 13006KT 36/17 A3005 RMK A01 T03590168  RH  032%=      5-min Rain = 0
KPD2 132053Z 12005KT 36/17 A3005 RMK A01 T03590168  RH  032%=      5-min Rain = 0
KPD2 132054Z 13009KT 36/17 A3005 RMK A01 T03590168  RH  032%=      5-min Rain = 0
KPD2 132055Z 14010KT 36/17 A3005 RMK A01 T03600166  RH  032%=      5-min Rain = 0
KPD2 132056Z 17006KT 36/17 A3004 RMK A01 T03580165  RH  032%=      5-min Rain = 0
KPD2 132057Z 12004KT 36/17 A3004 RMK A01 T03560166  RH  033%=      5-min Rain = 0
KPD2 132058Z 13004G9KT 36/17 A3004 RMK A01 T03560166  RH  032%=      5-min Rain = 0
KPD2 132059Z 11009KT 36/17 A3004 RMK A01 T03560167  RH  033%=      5-min Rain = 0
KPD2 132100Z 10004KT 36/17 A3005 RMK A01 T03580167  RH  032%=      5-min Rain = 0
KPD2 132101Z 14004KT 36/17 A3005 RMK A01 T03580168  RH  033%=      5-min Rain = 0
KPD2 132102Z 13010G15KT 36/17 A3004 RMK A01 T03600168  RH  032%=      5-min Rain = 0
KPD2 132103Z 14011KT 36/17 A3004 RMK A01 T03600167  RH  032%=      5-min Rain = 0
KPD2 132104Z 15008KT 36/17 A3004 RMK A01 T03570166  RH  032%=      5-min Rain = 0
KPD2 132105Z 15006KT 36/17 A3004 RMK A01 T03560168  RH  033%=      5-min Rain = 0
KPD2 132106Z 14011KT 36/17 A3004 RMK A01 T03580167  RH  032%=      5-min Rain = 0
KPD2 132107Z 12006KT 36/16 A3004 RMK A01 T03580164  RH  032%=      5-min Rain = 0
KPD2 132108Z 15007KT 36/17 A3004 RMK A01 T03560166  RH  033%=      5-min Rain = 0
KPD2 132109Z 13003KT 35/17 A3004 RMK A01 T03540168  RH  033%=      5-min Rain = 0
KPD2 132110Z 12008KT 36/17 A3004 RMK A01 T03550172  RH  034%=      5-min Rain = 0
KPD2 132111Z 11008KT 36/17 A3004 RMK A01 T03580172  RH  033%=      5-min Rain = 0
KPD2 132112Z 12010KT 36/17 A3004 RMK A01 T03590172  RH  033%=      5-min Rain = 0
KPD2 132113Z 11009G14KT 36/17 A3004 RMK A01 T03620173  RH  033%=      5-min Rain = 0
KPD2 132114Z 15007KT 36/17 A3004 RMK A01 T03620172  RH  033%=      5-min Rain = 0
KPD2 132115Z 13005KT 36/17 A3004 RMK A01 T03580172  RH  033%=      5-min Rain = 0
KPD2 132116Z 12008KT 36/17 A3004 RMK A01 T03580174  RH  034%=      5-min Rain = 0
KPD2 132117Z 13005KT 36/17 A3004 RMK A01 T03600172  RH  033%=      5-min Rain = 0
KPD2 132118Z 14010KT 36/17 A3004 RMK A01 T03600172  RH  033%=      5-min Rain = 0
KPD2 132119Z 13004KT 36/17 A3004 RMK A01 T03580174  RH  034%=      5-min Rain = 0
KPD2 132120Z 11006KT 36/17 A3004 RMK A01 T03590173  RH  033%=      5-min Rain = 0
KPD2 132121Z 12005KT 36/17 A3004 RMK A01 T03590173  RH  033%=      5-min Rain = 0
KPD2 132122Z 14004KT 36/17 A3004 RMK A01 T03600171  RH  033%=      5-min Rain = 0
KPD2 132123Z 13008KT 36/17 A3004 RMK A01 T03600171  RH  033%=      5-min Rain = 0
KPD2 132124Z 13012KT 36/17 A3004 RMK A01 T03590171  RH  033%=      5-min Rain = 0
KPD2 132125Z 13009KT 36/17 A3004 RMK A01 T03590170  RH  033%=      5-min Rain = 0
KPD2 132126Z 13008G14KT 36/17 A3004 RMK A01 T03600172  RH  033%=      5-min Rain = 0
KPD2 132127Z 12009G14KT 36/17 A3004 RMK A01 T03640173  RH  033%=      5-min Rain = 0
KPD2 132128Z 11007KT 37/17 A3004 RMK A01 T03660173  RH  032%=      5-min Rain = 0
KPD2 132129Z 10006KT 37/17 A3004 RMK A01 T03670174  RH  032%=      5-min Rain = 0
KPD2 132130Z 10010G15KT 37/18 A3004 RMK A01 T03650175  RH  033%=      5-min Rain = 0
KPD2 132131Z 12008KT 37/17 A3004 RMK A01 T03650174  RH  033%=      5-min Rain = 0
KPD2 132132Z 11007KT 36/17 A3004 RMK A01 T03610174  RH  033%=      5-min Rain = 0
KPD2 132133Z 09003G8KT 36/18 A3004 RMK A01 T03610175  RH  033%=      5-min Rain = 0
KPD2 132134Z 02002KT 36/18 A3004 RMK A01 T03610175  RH  033%=      5-min Rain = 0
KPD2 132135Z 10002KT 36/17 A3003 RMK A01 T03620174  RH  033%=      5-min Rain = 0
KPD2 132136Z 12005G12KT 36/17 A3003 RMK A01 T03620174  RH  033%=      5-min Rain = 0
KPD2 132137Z 13011KT 36/17 A3003 RMK A01 T03610172  RH  033%=      5-min Rain = 0
KPD2 132138Z 15007KT 36/17 A3003 RMK A01 T03580172  RH  033%=      5-min Rain = 0
KPD2 132139Z 13005KT 36/17 A3003 RMK A01 T03570171  RH  033%=      5-min Rain = 0
KPD2 132140Z 14007G12KT 36/17 A3003 RMK A01 T03580171  RH  033%=      5-min Rain = 0
KPD2 132141Z 14009KT 36/17 A3003 RMK A01 T03580170  RH  033%=      5-min Rain = 0
KPD2 132142Z 15006KT 36/16 A3003 RMK A01 T03590164  RH  031%=      5-min Rain = 0
KPD2 132143Z 16005KT 36/17 A3003 RMK A01 T03570165  RH  032%=      5-min Rain = 0
KPD2 132144Z 15004KT 36/17 A3003 RMK A01 T03570168  RH  033%=      5-min Rain = 0
KPD2 132145Z 18005KT 36/17 A3003 RMK A01 T03560169  RH  033%=      5-min Rain = 0
KPD2 132146Z 16004KT 36/17 A3003 RMK A01 T03560169  RH  033%=      5-min Rain = 0
KPD2 132147Z 14004KT 36/17 A3003 RMK A01 T03560169  RH  033%=      5-min Rain = 0
KPD2 132148Z 02005KT 36/17 A3003 RMK A01 T03560170  RH  033%=      5-min Rain = 0
KPD2 132149Z 35004KT 36/17 A3003 RMK A01 T03560170  RH  033%=      5-min Rain = 0
KPD2 132150Z 12010G15KT 36/17 A3003 RMK A01 T03560172  RH  034%=      5-min Rain = 0
KPD2 132151Z 12010KT 36/17 A3003 RMK A01 T03590173  RH  033%=      5-min Rain = 0
KPD2 132152Z 10010KT 36/17 A3003 RMK A01 T03610172  RH  033%=      5-min Rain = 0
KPD2 132153Z 09008KT 36/17 A3003 RMK A01 T03600170  RH  033%=      5-min Rain = 0
KPD2 132154Z 10007KT 36/17 A3003 RMK A01 T03570171  RH  033%=      5-min Rain = 0
KPD2 132155Z 09007G13KT 36/17 A3003 RMK A01 T03570171  RH  033%=      5-min Rain = 0
KPD2 132156Z 06006G12KT 36/17 A3003 RMK A01 T03560170  RH  033%=      5-min Rain = 0
KPD2 132157Z 04005KT 36/17 A3003 RMK A01 T03550170  RH  033%=      5-min Rain = 0
KPD2 132158Z 11008KT 36/17 A3003 RMK A01 T03550170  RH  033%=      5-min Rain = 0
KPD2 132159Z 12005G10KT 36/17 A3003 RMK A01 T03560168  RH  033%=      5-min Rain = 0
KPD2 132200Z 11008KT 36/17 A3003 RMK A01 T03560169  RH  033%=      5-min Rain = 0
KPD2 132201Z 14009KT 36/17 A3003 RMK A01 T03560167  RH  033%=      5-min Rain = 0
KPD2 132202Z 16007KT 36/16 A3002 RMK A01 T03550163  RH  032%=      5-min Rain = 0
KPD2 132203Z 14009KT 35/16 A3002 RMK A01 T03540164  RH  032%=      5-min Rain = 0
KPD2 132204Z 13010KT 36/16 A3002 RMK A01 T03550162  RH  032%=      5-min Rain = 0
KPD2 132205Z 14012KT 36/16 A3002 RMK A01 T03550164  RH  032%=      5-min Rain = 0
KPD2 132206Z 16009KT 36/17 A3002 RMK A01 T03560165  RH  032%=      5-min Rain = 0
KPD2 132207Z 14012KT 36/17 A3002 RMK A01 T03550166  RH  033%=      5-min Rain = 0
KPD2 132208Z 11009KT 35/17 A3002 RMK A01 T03540168  RH  033%=      5-min Rain = 0
KPD2 132209Z 10008G14KT 35/17 A3003 RMK A01 T03540168  RH  033%=      5-min Rain = 0
KPD2 132210Z 14002KT 35/17 A3002 RMK A01 T03540169  RH  033%=      5-min Rain = 0
KPD2 132211Z 11001KT 36/17 A3002 RMK A01 T03550168  RH  033%=      5-min Rain = 0
KPD2 132212Z 18003KT 35/17 A3002 RMK A01 T03540167  RH  033%=      5-min Rain = 0
KPD2 132213Z 16005KT 35/17 A3002 RMK A01 T03520167  RH  033%=      5-min Rain = 0
KPD2 132214Z 13012G18KT 35/17 A3002 RMK A01 T03510168  RH  034%=      5-min Rain = 0
KPD2 132215Z 09009KT 36/17 A3002 RMK A01 T03550168  RH  033%=      5-min Rain = 0
KPD2 132216Z 12006KT 36/17 A3002 RMK A01 T03560168  RH  033%=      5-min Rain = 0
KPD2 132217Z 11006KT 36/17 A3002 RMK A01 T03580168  RH  033%=      5-min Rain = 0
KPD2 132218Z 13005G10KT 36/17 A3002 RMK A01 T03600166  RH  032%=      5-min Rain = 0
KPD2 132219Z 09012KT 36/17 A3002 RMK A01 T03590166  RH  032%=      5-min Rain = 0
KPD2 132220Z 12007KT 36/17 A3002 RMK A01 T03570165  RH  032%=      5-min Rain = 0
KPD2 132221Z 14008KT 36/17 A3002 RMK A01 T03580165  RH  032%=      5-min Rain = 0
KPD2 132222Z 15011KT 36/16 A3002 RMK A01 T03600164  RH  031%=      5-min Rain = 0
KPD2 132223Z 13009KT 36/16 A3002 RMK A01 T03600163  RH  031%=      5-min Rain = 0
KPD2 132224Z 12010KT 36/16 A3002 RMK A01 T03590163  RH  031%=      5-min Rain = 0
KPD2 132225Z 12010KT 36/16 A3002 RMK A01 T03590162  RH  031%=      5-min Rain = 0
KPD2 132226Z 12007KT 36/16 A3002 RMK A01 T03610162  RH  031%=      5-min Rain = 0
KPD2 132227Z 13008KT 36/16 A3002 RMK A01 T03630159  RH  030%=      5-min Rain = 0
KPD2 132228Z 14006KT 36/16 A3002 RMK A01 T03640157  RH  029%=      5-min Rain = 0
KPD2 132229Z 13003KT 36/16 A3002 RMK A01 T03600157  RH  030%=      5-min Rain = 0
KPD2 132230Z 12007G13KT 36/16 A3002 RMK A01 T03590159  RH  030%=      5-min Rain = 0
KPD2 132231Z 14008KT 36/16 A3002 RMK A01 T03620163  RH  031%=      5-min Rain = 0
KPD2 132232Z 14006KT 36/16 A3002 RMK A01 T03630163  RH  031%=      5-min Rain = 0
KPD2 132233Z 12007KT 36/16 A3002 RMK A01 T03600164  RH  031%=      5-min Rain = 0
KPD2 132234Z 07004G9KT 36/16 A3002 RMK A01 T03580164  RH  032%=      5-min Rain = 0
KPD2 132235Z 16003KT 36/17 A3002 RMK A01 T03560165  RH  032%=      5-min Rain = 0
KPD2 132236Z 17004KT 36/16 A3002 RMK A01 T03560164  RH  032%=      5-min Rain = 0
KPD2 132237Z 12008G15KT 36/17 A3002 RMK A01 T03550165  RH  032%=      5-min Rain = 0
KPD2 132238Z 12008KT 36/17 A3002 RMK A01 T03570165  RH  032%=      5-min Rain = 0
KPD2 132239Z 12008G13KT 36/16 A3002 RMK A01 T03590164  RH  032%=      5-min Rain = 0
KPD2 132240Z 13008KT 36/16 A3002 RMK A01 T03630164  RH  031%=      5-min Rain = 0
KPD2 132241Z 14006KT 36/16 A3002 RMK A01 T03630159  RH  030%=      5-min Rain = 0
KPD2 132242Z 16005KT 36/16 A3002 RMK A01 T03600161  RH  031%=      5-min Rain = 0
KPD2 132243Z 15006KT 36/16 A3002 RMK A01 T03590163  RH  031%=      5-min Rain = 0
KPD2 132244Z 13008KT 36/17 A3002 RMK A01 T03580165  RH  032%=      5-min Rain = 0
KPD2 132245Z 14008G13KT 36/16 A3002 RMK A01 T03590164  RH  032%=      5-min Rain = 0
KPD2 132246Z 14007KT 36/17 A3002 RMK A01 T03570165  RH  032%=      5-min Rain = 0
KPD2 132247Z 15003KT 35/17 A3002 RMK A01 T03530166  RH  033%=      5-min Rain = 0
KPD2 132248Z 14008KT 35/17 A3002 RMK A01 T03530166  RH  033%=      5-min Rain = 0
KPD2 132249Z 12010KT 36/16 A3003 RMK A01 T03550164  RH  032%=      5-min Rain = 0
KPD2 132250Z 11007KT 36/17 A3003 RMK A01 T03550165  RH  033%=      5-min Rain = 0
KPD2 132251Z 10009KT 36/17 A3003 RMK A01 T03570165  RH  032%=      5-min Rain = 0
KPD2 132252Z 13009KT 36/16 A3003 RMK A01 T03580163  RH  031%=      5-min Rain = 0
KPD2 132253Z 14009KT 36/16 A3003 RMK A01 T03580160  RH  031%=      5-min Rain = 0
KPD2 132254Z 16005KT 36/16 A3003 RMK A01 T03560160  RH  031%=      5-min Rain = 0
KPD2 132255Z 15004KT 35/16 A3003 RMK A01 T03530161  RH  032%=      5-min Rain = 0
KPD2 132256Z 13007KT 35/16 A3003 RMK A01 T03530161  RH  032%=      5-min Rain = 0
KPD2 132257Z 12006KT 35/16 A3003 RMK A01 T03530161  RH  032%=      5-min Rain = 0
KPD2 132258Z 12007KT 36/16 A3003 RMK A01 T03550162  RH  032%=      5-min Rain = 0
KPD2 132259Z 13010KT 36/16 A3002 RMK A01 T03580160  RH  031%=      5-min Rain = 0
KPD2 132300Z 13010KT 36/16 A3003 RMK A01 T03590158  RH  030%=      5-min Rain = 0
KPD2 132301Z 13008KT 36/16 A3003 RMK A01 T03590157  RH  030%=      5-min Rain = 0
KPD2 132302Z 13009KT 36/16 A3003 RMK A01 T03590157  RH  030%=      5-min Rain = 0
KPD2 132303Z 14010KT 36/15 A3003 RMK A01 T03570154  RH  030%=      5-min Rain = 0
KPD2 132304Z 13009KT 35/15 A3003 RMK A01 T03540153  RH  030%=      5-min Rain = 0
KPD2 132305Z 13007KT 35/15 A3003 RMK A01 T03540154  RH  030%=      5-min Rain = 0
KPD2 132306Z 13006KT 35/16 A3003 RMK A01 T03530158  RH  031%=      5-min Rain = 0
KPD2 132307Z 11006KT 35/16 A3003 RMK A01 T03540159  RH  031%=      5-min Rain = 0
KPD2 132308Z 12005KT 36/16 A3003 RMK A01 T03560161  RH  031%=      5-min Rain = 0
KPD2 132309Z 14003KT 36/16 A3003 RMK A01 T03590161  RH  031%=      5-min Rain = 0
KPD2 132310Z 14007KT 36/16 A3003 RMK A01 T03600160  RH  031%=      5-min Rain = 0
KPD2 132311Z 11008KT 36/16 A3003 RMK A01 T03600158  RH  030%=      5-min Rain = 0
KPD2 132312Z 11007KT 36/16 A3003 RMK A01 T03590158  RH  030%=      5-min Rain = 0
KPD2 132313Z 09008KT 36/16 A3003 RMK A01 T03570157  RH  031%=      5-min Rain = 0
KPD2 132314Z 12006KT 35/16 A3003 RMK A01 T03540158  RH  031%=      5-min Rain = 0
KPD2 132315Z 09005KT 35/16 A3003 RMK A01 T03530161  RH  032%=      5-min Rain = 0
KPD2 132316Z 10007G13KT 35/16 A3003 RMK A01 T03530159  RH  032%=      5-min Rain = 0
KPD2 132317Z 08006KT 35/16 A3003 RMK A01 T03530159  RH  032%=      5-min Rain = 0
KPD2 132318Z 09004KT 35/16 A3003 RMK A01 T03500158  RH  032%=      5-min Rain = 0
KPD2 132319Z 08004G10KT 35/16 A3002 RMK A01 T03480158  RH  032%=      5-min Rain = 0
KPD2 132320Z 11006G12KT 35/16 A3002 RMK A01 T03480159  RH  033%=      5-min Rain = 0
KPD2 132321Z 13011KT 35/16 A3003 RMK A01 T03490157  RH  032%=      5-min Rain = 0
KPD2 132322Z 13007KT 35/16 A3003 RMK A01 T03510155  RH  031%=      5-min Rain = 0
KPD2 132323Z 13009KT 35/16 A3003 RMK A01 T03520156  RH  031%=      5-min Rain = 0
KPD2 132324Z 10009KT 35/16 A3003 RMK A01 T03520157  RH  031%=      5-min Rain = 0
KPD2 132325Z 10010KT 35/16 A3003 RMK A01 T03520157  RH  031%=      5-min Rain = 0
KPD2 132326Z 10008G13KT 35/16 A3003 RMK A01 T03520157  RH  031%=      5-min Rain = 0
KPD2 132327Z 10008KT 35/16 A3003 RMK A01 T03510157  RH  031%=      5-min Rain = 0
KPD2 132328Z 11006KT 35/16 A3003 RMK A01 T03500156  RH  031%=      5-min Rain = 0
KPD2 132329Z 11002KT 35/15 A3003 RMK A01 T03500154  RH  031%=      5-min Rain = 0
KPD2 132330Z 15003KT 35/15 A3003 RMK A01 T03500154  RH  031%=      5-min Rain = 0
KPD2 132331Z 12004KT 35/15 A3003 RMK A01 T03500154  RH  031%=      5-min Rain = 0
KPD2 132332Z 14008KT 35/15 A3003 RMK A01 T03500154  RH  031%=      5-min Rain = 0
KPD2 132333Z 14009KT 35/15 A3003 RMK A01 T03500153  RH  031%=      5-min Rain = 0
KPD2 132334Z 14006KT 35/15 A3002 RMK A01 T03480154  RH  031%=      5-min Rain = 0
KPD2 132335Z 13010G15KT 35/16 A3003 RMK A01 T03480155  RH  032%=      5-min Rain = 0
KPD2 132336Z 11010KT 35/16 A3003 RMK A01 T03480159  RH  032%=      5-min Rain = 0
KPD2 132337Z 12005KT 35/16 A3003 RMK A01 T03490159  RH  032%=      5-min Rain = 0
KPD2 132338Z 12007KT 35/16 A3003 RMK A01 T03500158  RH  032%=      5-min Rain = 0
KPD2 132339Z 11006KT 35/16 A3003 RMK A01 T03510157  RH  032%=      5-min Rain = 0
KPD2 132340Z 13005KT 35/16 A3003 RMK A01 T03510157  RH  032%=      5-min Rain = 0
KPD2 132341Z 13007KT 35/16 A3003 RMK A01 T03510161  RH  032%=      5-min Rain = 0
KPD2 132342Z 15007G12KT 35/16 A3003 RMK A01 T03490161  RH  033%=      5-min Rain = 0
KPD2 132343Z 13007KT 35/16 A3003 RMK A01 T03480161  RH  033%=      5-min Rain = 0
KPD2 132344Z 10005KT 35/16 A3003 RMK A01 T03470162  RH  033%=      5-min Rain = 0
KPD2 132345Z 10008KT 35/16 A3003 RMK A01 T03460161  RH  033%=      5-min Rain = 0
KPD2 132346Z 12003KT 35/16 A3003 RMK A01 T03450162  RH  034%=      5-min Rain = 0
KPD2 132347Z 09005KT 35/16 A3003 RMK A01 T03450163  RH  034%=      5-min Rain = 0
KPD2 132348Z 14005KT 35/16 A3003 RMK A01 T03460163  RH  034%=      5-min Rain = 0
KPD2 132349Z 12004G10KT 35/16 A3003 RMK A01 T03480163  RH  033%=      5-min Rain = 0
KPD2 132350Z 13007KT 35/17 A3003 RMK A01 T03500165  RH  033%=      5-min Rain = 0
KPD2 132351Z 12008G13KT 35/16 A3003 RMK A01 T03510164  RH  033%=      5-min Rain = 0
KPD2 132352Z 11010KT 35/16 A3003 RMK A01 T03500164  RH  033%=      5-min Rain = 0
KPD2 132353Z 12012KT 35/16 A3003 RMK A01 T03490163  RH  033%=      5-min Rain = 0
KPD2 132354Z 12008KT 35/16 A3003 RMK A01 T03490164  RH  033%=      5-min Rain = 0
KPD2 132355Z 12007KT 35/16 A3003 RMK A01 T03500164  RH  033%=      5-min Rain = 0
KPD2 132356Z 11009KT 35/16 A3003 RMK A01 T03510164  RH  033%=      5-min Rain = 0
KPD2 132357Z 10007KT 35/17 A3003 RMK A01 T03500165  RH  033%=      5-min Rain = 0
KPD2 132358Z 11006KT 35/17 A3003 RMK A01 T03480165  RH  034%=      5-min Rain = 0
KPD2 132359Z 12004KT 35/17 A3003 RMK A01 T03470165  RH  034%=      5-min Rain = 0
KPD2 140000Z 12005G11KT 35/17 A3003 RMK A01 T03470165  RH  034%=      5-min Rain = 0
KPD2 140001Z 12008KT 35/17 A3003 RMK A01 T03480166  RH  034%=      5-min Rain = 0
KPD2 140002Z 12007KT 35/17 A3003 RMK A01 T03480166  RH  034%=      5-min Rain = 0
KPD2 140003Z 12006KT 35/17 A3003 RMK A01 T03490168  RH  034%=      5-min Rain = 0
KPD2 140004Z 12007KT 35/17 A3003 RMK A01 T03490168  RH  034%=      5-min Rain = 0
KPD2 140005Z 12008KT 35/17 A3003 RMK A01 T03490169  RH  034%=      5-min Rain = 0
KPD2 140006Z 11006KT 35/17 A3003 RMK A01 T03490169  RH  034%=      5-min Rain = 0
KPD2 140007Z 09004KT 35/17 A3003 RMK A01 T03500170  RH  034%=      5-min Rain = 0
KPD2 140008Z 11003KT 35/17 A3003 RMK A01 T03490170  RH  035%=      5-min Rain = 0
KPD2 140009Z 11006KT 35/17 A3003 RMK A01 T03490170  RH  035%=      5-min Rain = 0
KPD2 140010Z 12006KT 35/17 A3003 RMK A01 T03480170  RH  035%=      5-min Rain = 0
KPD2 140011Z 13004KT 35/17 A3003 RMK A01 T03470170  RH  035%=      5-min Rain = 0
KPD2 140012Z 13006KT 35/17 A3003 RMK A01 T03460171  RH  035%=      5-min Rain = 0
KPD2 140013Z 13008KT 35/17 A3003 RMK A01 T03450173  RH  036%=      5-min Rain = 0
KPD2 140014Z 13008G13KT 34/17 A3003 RMK A01 T03440174  RH  036%=      5-min Rain = 0
KPD2 140015Z 15007KT 34/17 A3003 RMK A01 T03420174  RH  037%=      5-min Rain = 0
KPD2 140016Z 14010KT 34/17 A3003 RMK A01 T03420174  RH  037%=      5-min Rain = 0
KPD2 140017Z 13010KT 34/17 A3003 RMK A01 T03410174  RH  037%=      5-min Rain = 0
KPD2 140018Z 13009KT 34/18 A3003 RMK A01 T03400175  RH  038%=      5-min Rain = 0
KPD2 140019Z 13005KT 34/18 A3003 RMK A01 T03400175  RH  038%=      5-min Rain = 0
KPD2 140020Z 13006KT 34/18 A3003 RMK A01 T03400176  RH  038%=      5-min Rain = 0
KPD2 140021Z 12009KT 34/18 A3003 RMK A01 T03420176  RH  037%=      5-min Rain = 0
KPD2 140022Z 13009KT 34/18 A3003 RMK A01 T03420175  RH  037%=      5-min Rain = 0
KPD2 140023Z 15010KT 34/18 A3003 RMK A01 T03410175  RH  037%=      5-min Rain = 0
KPD2 140024Z 15009KT 34/18 A3003 RMK A01 T03400175  RH  038%=      5-min Rain = 0
KPD2 140025Z 14007KT 34/18 A3003 RMK A01 T03370175  RH  038%=      5-min Rain = 0
KPD2 140026Z 16008KT 34/18 A3003 RMK A01 T03360175  RH  038%=      5-min Rain = 0
KPD2 140027Z 14007KT 34/18 A3003 RMK A01 T03350175  RH  039%=      5-min Rain = 0
KPD2 140028Z 14009KT 34/18 A3003 RMK A01 T03350175  RH  039%=      5-min Rain = 0
KPD2 140029Z 15006KT 34/18 A3003 RMK A01 T03350175  RH  039%=      5-min Rain = 0
KPD2 140030Z 14008KT 33/18 A3003 RMK A01 T03340176  RH  039%=      5-min Rain = 0
KPD2 140031Z 14008KT 33/18 A3003 RMK A01 T03340175  RH  039%=      5-min Rain = 0
KPD2 140032Z 13010KT 34/18 A3003 RMK A01 T03350176  RH  039%=      5-min Rain = 0
KPD2 140033Z 12008KT 33/18 A3003 RMK A01 T03340176  RH  039%=      5-min Rain = 0
KPD2 140034Z 12009KT 33/18 A3003 RMK A01 T03340176  RH  039%=      5-min Rain = 0
KPD2 140035Z 13010KT 33/18 A3003 RMK A01 T03340176  RH  039%=      5-min Rain = 0
KPD2 140036Z 14007KT 33/18 A3003 RMK A01 T03340176  RH  039%=      5-min Rain = 0
KPD2 140037Z 14009KT 33/18 A3003 RMK A01 T03340176  RH  039%=      5-min Rain = 0
KPD2 140038Z 14007KT 33/18 A3003 RMK A01 T03330175  RH  039%=      5-min Rain = 0
KPD2 140039Z 13006KT 33/18 A3003 RMK A01 T03320175  RH  039%=      5-min Rain = 0
KPD2 140040Z 14006KT 33/18 A3003 RMK A01 T03310176  RH  040%=      5-min Rain = 0
KPD2 140041Z 15005KT 33/18 A3003 RMK A01 T03310176  RH  040%=      5-min Rain = 0
KPD2 140042Z 13007KT 33/18 A3003 RMK A01 T03310176  RH  040%=      5-min Rain = 0
KPD2 140043Z 13008KT 33/18 A3003 RMK A01 T03310176  RH  040%=      5-min Rain = 0
KPD2 140044Z 14006KT 33/18 A3003 RMK A01 T03310176  RH  040%=      5-min Rain = 0
KPD2 140045Z 13009KT 33/18 A3003 RMK A01 T03310176  RH  040%=      5-min Rain = 0
KPD2 140046Z 14009KT 33/18 A3003 RMK A01 T03300177  RH  040%=      5-min Rain = 0
KPD2 140047Z 14011KT 33/18 A3003 RMK A01 T03300177  RH  040%=      5-min Rain = 0
KPD2 140048Z 13011KT 33/18 A3003 RMK A01 T03280178  RH  041%=      5-min Rain = 0
KPD2 140049Z 12010KT 33/18 A3003 RMK A01 T03280178  RH  041%=      5-min Rain = 0
KPD2 140050Z 12009KT 33/18 A3003 RMK A01 T03270178  RH  041%=      5-min Rain = 0
KPD2 140051Z 12006KT 33/18 A3004 RMK A01 T03270178  RH  041%=      5-min Rain = 0
KPD2 140052Z 12004KT 33/18 A3004 RMK A01 T03270178  RH  041%=      5-min Rain = 0
KPD2 140053Z 13007KT 33/18 A3004 RMK A01 T03270178  RH  041%=      5-min Rain = 0
KPD2 140054Z 16007KT 33/18 A3004 RMK A01 T03270178  RH  041%=      5-min Rain = 0
KPD2 140055Z 14009KT 33/18 A3004 RMK A01 T03260178  RH  041%=      5-min Rain = 0
KPD2 140056Z 14010KT 33/18 A3004 RMK A01 T03250178  RH  042%=      5-min Rain = 0
KPD2 140057Z 14008G13KT 32/18 A3004 RMK A01 T03240179  RH  042%=      5-min Rain = 0
KPD2 140058Z 13008KT 32/18 A3004 RMK A01 T03230179  RH  042%=      5-min Rain = 0
KPD2 140059Z 13009KT 32/18 A3004 RMK A01 T03220178  RH  042%=      5-min Rain = 0
KPD2 140100Z 14006KT 32/18 A3004 RMK A01 T03220179  RH  042%=      5-min Rain = 0
KPD2 140101Z 15006KT 32/18 A3004 RMK A01 T03220179  RH  043%=      5-min Rain = 0
KPD2 140102Z 13006KT 32/18 A3004 RMK A01 T03220179  RH  043%=      5-min Rain = 0
KPD2 140103Z 13009KT 32/18 A3004 RMK A01 T03220180  RH  043%=      5-min Rain = 0
KPD2 140104Z 13010KT 32/18 A3004 RMK A01 T03220181  RH  043%=      5-min Rain = 0
KPD2 140105Z 13010KT 32/18 A3004 RMK A01 T03210181  RH  043%=      5-min Rain = 0
KPD2 140106Z 12008KT 32/18 A3004 RMK A01 T03210181  RH  043%=      5-min Rain = 0
KPD2 140107Z 12008KT 32/18 A3004 RMK A01 T03210181  RH  044%=      5-min Rain = 0
KPD2 140108Z 13011KT 32/18 A3004 RMK A01 T03210182  RH  044%=      5-min Rain = 0
KPD2 140109Z 14009KT 32/18 A3004 RMK A01 T03200182  RH  044%=      5-min Rain = 0
KPD2 140110Z 14009KT 32/18 A3004 RMK A01 T03190183  RH  044%=      5-min Rain = 0
KPD2 140111Z 13008KT 32/18 A3004 RMK A01 T03180182  RH  044%=      5-min Rain = 0
KPD2 140112Z 13008KT 32/18 A3005 RMK A01 T03180182  RH  045%=      5-min Rain = 0
KPD2 140113Z 13009KT 32/18 A3005 RMK A01 T03170182  RH  045%=      5-min Rain = 0
KPD2 140114Z 13005G10KT 32/18 A3005 RMK A01 T03170182  RH  045%=      5-min Rain = 0
KPD2 140115Z 13006KT 32/18 A3005 RMK A01 T03170182  RH  045%=      5-min Rain = 0
KPD2 140116Z 13009KT 32/18 A3004 RMK A01 T03170182  RH  045%=      5-min Rain = 0
KPD2 140117Z 13007KT 32/18 A3004 RMK A01 T03160182  RH  045%=      5-min Rain = 0
KPD2 140118Z 13009KT 32/18 A3005 RMK A01 T03160183  RH  045%=      5-min Rain = 0
KPD2 140119Z 13007KT 32/18 A3005 RMK A01 T03150182  RH  045%=      5-min Rain = 0
KPD2 140120Z 12005KT 32/18 A3005 RMK A01 T03150183  RH  045%=      5-min Rain = 0
KPD2 140121Z 13006KT 32/18 A3005 RMK A01 T03150183  RH  045%=      5-min Rain = 0
KPD2 140122Z 13007KT 32/18 A3005 RMK A01 T03150183  RH  045%=      5-min Rain = 0
KPD2 140123Z 14006KT 32/18 A3005 RMK A01 T03150183  RH  046%=      5-min Rain = 0
KPD2 140124Z 15007KT 31/18 A3005 RMK A01 T03140183  RH  046%=      5-min Rain = 0
KPD2 140125Z 14007KT 31/18 A3005 RMK A01 T03130183  RH  046%=      5-min Rain = 0
KPD2 140126Z 14006KT 31/18 A3005 RMK A01 T03130183  RH  046%=      5-min Rain = 0
KPD2 140127Z 14007KT 31/18 A3005 RMK A01 T03120183  RH  046%=      5-min Rain = 0
KPD2 140128Z 13008KT 31/18 A3005 RMK A01 T03120183  RH  046%=      5-min Rain = 0
KPD2 140129Z 13006KT 31/18 A3005 RMK A01 T03110183  RH  046%=      5-min Rain = 0
KPD2 140130Z 14007KT 31/18 A3005 RMK A01 T03110183  RH  046%=      5-min Rain = 0
KPD2 140131Z 13007KT 31/18 A3006 RMK A01 T03110183  RH  047%=      5-min Rain = 0
KPD2 140132Z 14007KT 31/18 A3006 RMK A01 T03110183  RH  047%=      5-min Rain = 0
KPD2 140133Z 14008KT 31/18 A3006 RMK A01 T03100183  RH  047%=      5-min Rain = 0
KPD2 140134Z 14007KT 31/18 A3005 RMK A01 T03100183  RH  047%=      5-min Rain = 0
KPD2 140135Z 13008KT 31/18 A3005 RMK A01 T03090183  RH  047%=      5-min Rain = 0
KPD2 140136Z 13010KT 31/18 A3006 RMK A01 T03090183  RH  047%=      5-min Rain = 0
KPD2 140137Z 13008KT 31/18 A3006 RMK A01 T03090184  RH  047%=      5-min Rain = 0
KPD2 140138Z 13006KT 31/18 A3006 RMK A01 T03090183  RH  047%=      5-min Rain = 0
KPD2 140139Z 14008KT 31/18 A3006 RMK A01 T03090184  RH  047%=      5-min Rain = 0
KPD2 140140Z 14007KT 31/18 A3006 RMK A01 T03090184  RH  047%=      5-min Rain = 0
KPD2 140141Z 14008KT 31/18 A3006 RMK A01 T03080183  RH  047%=      5-min Rain = 0
KPD2 140142Z 14008KT 31/18 A3006 RMK A01 T03080184  RH  048%=      5-min Rain = 0
KPD2 140143Z 14008KT 31/18 A3006 RMK A01 T03070184  RH  048%=      5-min Rain = 0
KPD2 140144Z 13006KT 31/18 A3006 RMK A01 T03070184  RH  048%=      5-min Rain = 0
KPD2 140145Z 14007KT 31/18 A3006 RMK A01 T03060184  RH  048%=      5-min Rain = 0
KPD2 140146Z 14008KT 31/18 A3006 RMK A01 T03060184  RH  048%=      5-min Rain = 0
KPD2 140147Z 14006KT 31/18 A3006 RMK A01 T03050184  RH  048%=      5-min Rain = 0
KPD2 140148Z 14007KT 31/18 A3006 RMK A01 T03050184  RH  048%=      5-min Rain = 0
KPD2 140149Z 14007KT 31/18 A3007 RMK A01 T03050184  RH  048%=      5-min Rain = 0
KPD2 140150Z 14007KT 30/18 A3007 RMK A01 T03040184  RH  049%=      5-min Rain = 0
KPD2 140151Z 14007KT 30/18 A3007 RMK A01 T03040184  RH  049%=      5-min Rain = 0
KPD2 140152Z 14007KT 30/18 A3007 RMK A01 T03040184  RH  049%=      5-min Rain = 0
KPD2 140153Z 14007KT 30/18 A3007 RMK A01 T03030184  RH  049%=      5-min Rain = 0
KPD2 140154Z 14007KT 30/18 A3007 RMK A01 T03030184  RH  049%=      5-min Rain = 0
KPD2 140155Z 14006KT 30/18 A3007 RMK A01 T03030184  RH  049%=      5-min Rain = 0
KPD2 140156Z 14006KT 30/18 A3007 RMK A01 T03030184  RH  049%=      5-min Rain = 0
KPD2 140157Z 14007KT 30/18 A3007 RMK A01 T03020184  RH  049%=      5-min Rain = 0
KPD2 140158Z 14005KT 30/18 A3007 RMK A01 T03020184  RH  049%=      5-min Rain = 0
KPD2 140159Z 13005KT 30/18 A3007 RMK A01 T03020184  RH  049%=      5-min Rain = 0
KPD2 140200Z 14006KT 30/18 A3007 RMK A01 T03020184  RH  049%=      5-min Rain = 0
KPD2 140201Z 14005KT 30/18 A3007 RMK A01 T03020184  RH  049%=      5-min Rain = 0
KPD2 140202Z 13007KT 30/18 A3007 RMK A01 T03010184  RH  049%=      5-min Rain = 0
KPD2 140203Z 13007KT 30/18 A3007 RMK A01 T03020184  RH  049%=      5-min Rain = 0
KPD2 140204Z 13007KT 30/18 A3007 RMK A01 T03010184  RH  049%=      5-min Rain = 0
KPD2 140205Z 13007KT 30/18 A3007 RMK A01 T03010184  RH  050%=      5-min Rain = 0
KPD2 140206Z 13008KT 30/18 A3007 RMK A01 T03010184  RH  049%=      5-min Rain = 0
KPD2 140207Z 14005KT 30/18 A3007 RMK A01 T03010184  RH  049%=      5-min Rain = 0
KPD2 140208Z 14007KT 30/18 A3007 RMK A01 T03010184  RH  049%=      5-min Rain = 0
KPD2 140209Z 14005KT 30/18 A3008 RMK A01 T03010184  RH  050%=      5-min Rain = 0
KPD2 140210Z 14006KT 30/18 A3008 RMK A01 T03010184  RH  050%=      5-min Rain = 0
KPD2 140211Z 13007KT 30/18 A3008 RMK A01 T03010184  RH  050%=      5-min Rain = 0
KPD2 140212Z 13007KT 30/18 A3008 RMK A01 T03010184  RH  050%=      5-min Rain = 0
KPD2 140213Z 14007KT 30/18 A3008 RMK A01 T03010184  RH  050%=      5-min Rain = 0
KPD2 140214Z 14007KT 30/18 A3008 RMK A01 T03000184  RH  050%=      5-min Rain = 0
KPD2 140215Z 13007KT 30/18 A3008 RMK A01 T03000184  RH  050%=      5-min Rain = 0
KPD2 140216Z 14008KT 30/18 A3008 RMK A01 T03000184  RH  050%=      5-min Rain = 0
KPD2 140217Z 14008KT 30/18 A3008 RMK A01 T03000184  RH  050%=      5-min Rain = 0
KPD2 140218Z 14008KT 30/18 A3008 RMK A01 T03000184  RH  050%=      5-min Rain = 0
KPD2 140219Z 13008KT 30/19 A3008 RMK A01 T03000185  RH  050%=      5-min Rain = 0
KPD2 140220Z 14009KT 30/18 A3008 RMK A01 T02990184  RH  050%=      5-min Rain = 0
KPD2 140221Z 13006KT 30/18 A3008 RMK A01 T02990184  RH  050%=      5-min Rain = 0
KPD2 140222Z 15008KT 30/18 A3008 RMK A01 T02990184  RH  050%=      5-min Rain = 0
KPD2 140223Z 14006KT 30/18 A3008 RMK A01 T02980183  RH  050%=      5-min Rain = 0
KPD2 140224Z 13006KT 30/18 A3008 RMK A01 T02980184  RH  050%=      5-min Rain = 0
KPD2 140225Z 13007KT 30/18 A3009 RMK A01 T02970184  RH  051%=      5-min Rain = 0
KPD2 140226Z 13007KT 30/19 A3009 RMK A01 T02970185  RH  051%=      5-min Rain = 0
KPD2 140227Z 12006KT 30/19 A3009 RMK A01 T02970185  RH  051%=      5-min Rain = 0
KPD2 140228Z 13005KT 30/18 A3009 RMK A01 T02970184  RH  051%=      5-min Rain = 0
KPD2 140229Z 13004KT 30/19 A3009 RMK A01 T02970185  RH  051%=      5-min Rain = 0
KPD2 140230Z 12007KT 30/18 A3009 RMK A01 T02960184  RH  051%=      5-min Rain = 0
KPD2 140231Z 12005KT 30/18 A3009 RMK A01 T02960184  RH  051%=      5-min Rain = 0
KPD2 140232Z 12007KT 30/19 A3009 RMK A01 T02960185  RH  051%=      5-min Rain = 0
KPD2 140233Z 12005KT 30/18 A3009 RMK A01 T02960184  RH  051%=      5-min Rain = 0
KPD2 140234Z 12006KT 30/18 A3009 RMK A01 T02960184  RH  051%=      5-min Rain = 0
KPD2 140235Z 12005KT 30/18 A3009 RMK A01 T02960184  RH  051%=      5-min Rain = 0
KPD2 140236Z 13005KT 30/19 A3009 RMK A01 T02960185  RH  051%=      5-min Rain = 0
KPD2 140237Z 12006KT 30/19 A3009 RMK A01 T02960185  RH  051%=      5-min Rain = 0
KPD2 140238Z 13007KT 30/18 A3009 RMK A01 T02950184  RH  051%=      5-min Rain = 0
KPD2 140239Z 13004KT 30/19 A3009 RMK A01 T02950185  RH  051%=      5-min Rain = 0
KPD2 140240Z 14005KT 30/19 A3009 RMK A01 T02950185  RH  051%=      5-min Rain = 0
KPD2 140241Z 14006KT 30/19 A3009 RMK A01 T02950185  RH  052%=      5-min Rain = 0
KPD2 140242Z 13006KT 29/19 A301 RMK A01 T02940185  RH  052%=      5-min Rain = 0
KPD2 140243Z 13007KT 29/18 A301 RMK A01 T02940184  RH  052%=      5-min Rain = 0
KPD2 140244Z 13007KT 29/18 A301 RMK A01 T02940184  RH  052%=      5-min Rain = 0
KPD2 140245Z 14007KT 29/18 A301 RMK A01 T02930184  RH  052%=      5-min Rain = 0
KPD2 140246Z 12005KT 29/18 A301 RMK A01 T02930184  RH  052%=      5-min Rain = 0
KPD2 140247Z 12005KT 29/19 A301 RMK A01 T02930185  RH  052%=      5-min Rain = 0
KPD2 140248Z 13004KT 29/18 A301 RMK A01 T02930184  RH  052%=      5-min Rain = 0
KPD2 140249Z 13007KT 29/19 A301 RMK A01 T02930185  RH  052%=      5-min Rain = 0
KPD2 140250Z 12007KT 29/18 A301 RMK A01 T02920184  RH  052%=      5-min Rain = 0
KPD2 140251Z 13005KT 29/18 A301 RMK A01 T02920184  RH  052%=      5-min Rain = 0
KPD2 140252Z 13005KT 29/18 A301 RMK A01 T02920184  RH  052%=      5-min Rain = 0
KPD2 140253Z 12006KT 29/18 A301 RMK A01 T02910184  RH  052%=      5-min Rain = 0
KPD2 140254Z 13006KT 29/18 A301 RMK A01 T02910184  RH  052%=      5-min Rain = 0
KPD2 140255Z 13006KT 29/18 A301 RMK A01 T02910183  RH  052%=      5-min Rain = 0
KPD2 140256Z 12006KT 29/18 A301 RMK A01 T02910183  RH  052%=      5-min Rain = 0
KPD2 140257Z 12005KT 29/18 A301 RMK A01 T02910183  RH  052%=      5-min Rain = 0
KPD2 140258Z 13003KT 29/18 A301 RMK A01 T02910184  RH  052%=      5-min Rain = 0
KPD2 140259Z 11006KT 29/18 A301 RMK A01 T02910184  RH  052%=      5-min Rain = 0
KPD2 140300Z 11007KT 29/18 A301 RMK A01 T02900183  RH  053%=      5-min Rain = 0
KPD2 140301Z 11004KT 29/18 A301 RMK A01 T02900183  RH  053%=      5-min Rain = 0
KPD2 140302Z 11005KT 29/18 A3011 RMK A01 T02900184  RH  053%=      5-min Rain = 0
KPD2 140303Z 12005KT 29/18 A3011 RMK A01 T02890183  RH  053%=      5-min Rain = 0
KPD2 140304Z 12005KT 29/18 A3011 RMK A01 T02890183  RH  053%=      5-min Rain = 0
KPD2 140305Z 12009KT 29/18 A3011 RMK A01 T02880183  RH  053%=      5-min Rain = 0
KPD2 140306Z 12008KT 29/18 A3011 RMK A01 T02880183  RH  053%=      5-min Rain = 0
KPD2 140307Z 12005KT 29/18 A3011 RMK A01 T02880183  RH  053%=      5-min Rain = 0
KPD2 140308Z 13004KT 29/18 A3011 RMK A01 T02880183  RH  053%=      5-min Rain = 0
KPD2 140309Z 13007KT 29/18 A3011 RMK A01 T02880183  RH  053%=      5-min Rain = 0
KPD2 140310Z 12006KT 29/18 A3011 RMK A01 T02880183  RH  053%=      5-min Rain = 0
KPD2 140311Z 13006KT 29/18 A3011 RMK A01 T02880183  RH  053%=      5-min Rain = 0
KPD2 140312Z 13005KT 29/18 A3011 RMK A01 T02880183  RH  053%=      5-min Rain = 0
KPD2 140313Z 16004KT 29/18 A3011 RMK A01 T02870183  RH  053%=      5-min Rain = 0
KPD2 140314Z 15005KT 29/18 A3011 RMK A01 T02860183  RH  054%=      5-min Rain = 0
KPD2 140315Z 15005KT 29/18 A3011 RMK A01 T02850183  RH  054%=      5-min Rain = 0
KPD2 140316Z 15005KT 28/18 A3011 RMK A01 T02830183  RH  054%=      5-min Rain = 0
KPD2 140317Z 16005KT 28/18 A3011 RMK A01 T02820183  RH  055%=      5-min Rain = 0
KPD2 140318Z 16005KT 28/18 A3011 RMK A01 T02810183  RH  055%=      5-min Rain = 0
KPD2 140319Z 15006KT 28/18 A3011 RMK A01 T02800183  RH  055%=      5-min Rain = 0
KPD2 140320Z 15006KT 28/18 A3011 RMK A01 T02800183  RH  055%=      5-min Rain = 0
KPD2 140321Z 16006KT 28/18 A3011 RMK A01 T02800183  RH  056%=      5-min Rain = 0
KPD2 140322Z 15005KT 28/18 A3011 RMK A01 T02790182  RH  056%=      5-min Rain = 0
KPD2 140323Z 15004KT 28/18 A3011 RMK A01 T02790182  RH  056%=      5-min Rain = 0
KPD2 140324Z 14007KT 28/18 A3011 RMK A01 T02800183  RH  056%=      5-min Rain = 0
KPD2 140325Z 14008KT 28/18 A3011 RMK A01 T02790183  RH  056%=      5-min Rain = 0
KPD2 140326Z 15006KT 28/18 A3011 RMK A01 T02790182  RH  055%=      5-min Rain = 0
KPD2 140327Z 15006KT 28/18 A3011 RMK A01 T02790182  RH  055%=      5-min Rain = 0
KPD2 140328Z 15005KT 28/18 A3011 RMK A01 T02800183  RH  056%=      5-min Rain = 0
KPD2 140329Z 15006KT 28/18 A3011 RMK A01 T02790182  RH  056%=      5-min Rain = 0
KPD2 140330Z 14004KT 28/18 A3011 RMK A01 T02790182  RH  056%=      5-min Rain = 0
KPD2 140331Z 14005KT 28/18 A3011 RMK A01 T02790182  RH  056%=      5-min Rain = 0
KPD2 140332Z 14005KT 28/18 A3011 RMK A01 T02780182  RH  056%=      5-min Rain = 0
KPD2 140333Z 15003KT 28/18 A3011 RMK A01 T02780183  RH  056%=      5-min Rain = 0
KPD2 140334Z 14005KT 28/18 A3011 RMK A01 T02770182  RH  056%=      5-min Rain = 0
KPD2 140335Z 14005KT 28/18 A3011 RMK A01 T02770182  RH  056%=      5-min Rain = 0
KPD2 140336Z 14005KT 28/18 A3011 RMK A01 T02770182  RH  056%=      5-min Rain = 0
KPD2 140337Z 14004KT 28/18 A3011 RMK A01 T02770182  RH  056%=      5-min Rain = 0
KPD2 140338Z 14004KT 28/18 A3011 RMK A01 T02760182  RH  056%=      5-min Rain = 0
KPD2 140339Z 14005KT 28/18 A3011 RMK A01 T02760182  RH  056%=      5-min Rain = 0
KPD2 140340Z 12004KT 28/18 A3011 RMK A01 T02760182  RH  056%=      5-min Rain = 0
KPD2 140341Z 13004KT 28/18 A3011 RMK A01 T02760182  RH  056%=      5-min Rain = 0
KPD2 140342Z 12004KT 28/18 A3012 RMK A01 T02760181  RH  056%=      5-min Rain = 0
KPD2 140343Z 12006KT 28/18 A3012 RMK A01 T02770181  RH  056%=      5-min Rain = 0
KPD2 140344Z 12007KT 28/18 A3012 RMK A01 T02780181  RH  055%=      5-min Rain = 0
KPD2 140345Z 11004KT 28/18 A3012 RMK A01 T02790181  RH  055%=      5-min Rain = 0
KPD2 140346Z 12004KT 28/18 A3012 RMK A01 T02790181  RH  055%=      5-min Rain = 0
KPD2 140347Z 12004KT 28/18 A3012 RMK A01 T02790181  RH  055%=      5-min Rain = 0
KPD2 140348Z 11004KT 28/18 A3012 RMK A01 T02790181  RH  055%=      5-min Rain = 0
KPD2 140349Z 13006KT 28/18 A3012 RMK A01 T02790181  RH  055%=      5-min Rain = 0
KPD2 140350Z 12004KT 28/18 A3012 RMK A01 T02780181  RH  055%=      5-min Rain = 0
KPD2 140351Z 12004KT 28/18 A3012 RMK A01 T02790181  RH  055%=      5-min Rain = 0
KPD2 140352Z 12005KT 28/18 A3012 RMK A01 T02790180  RH  055%=      5-min Rain = 0
KPD2 140353Z 12005KT 28/18 A3012 RMK A01 T02790181  RH  055%=      5-min Rain = 0
KPD2 140354Z 12007KT 28/18 A3012 RMK A01 T02790181  RH  055%=      5-min Rain = 0
KPD2 140355Z 13006KT 28/18 A3012 RMK A01 T02780181  RH  055%=      5-min Rain = 0
KPD2 140356Z 13007KT 28/18 A3012 RMK A01 T02780181  RH  055%=      5-min Rain = 0
KPD2 140357Z 13007KT 28/18 A3011 RMK A01 T02780181  RH  055%=      5-min Rain = 0
KPD2 140358Z 14007KT 28/18 A3011 RMK A01 T02790181  RH  055%=      5-min Rain = 0
KPD2 140359Z 13007KT 28/18 A3011 RMK A01 T02790181  RH  055%=      5-min Rain = 0
KPD2 140400Z 13007KT 28/18 A3011 RMK A01 T02780181  RH  055%=      5-min Rain = 0
KPD2 140401Z 15005KT 28/18 A3011 RMK A01 T02780181  RH  056%=      5-min Rain = 0
KPD2 140402Z 15005KT 28/18 A3011 RMK A01 T02780181  RH  056%=      5-min Rain = 0
KPD2 140403Z 16004KT 28/18 A3011 RMK A01 T02760181  RH  056%=      5-min Rain = 0
KPD2 140404Z 16005KT 28/18 A3011 RMK A01 T02750181  RH  057%=      5-min Rain = 0
KPD2 140405Z 16006KT 27/18 A3011 RMK A01 T02740181  RH  057%=      5-min Rain = 0
KPD2 140406Z 16005KT 27/18 A3011 RMK A01 T02730181  RH  057%=      5-min Rain = 0
KPD2 140407Z 16004KT 27/18 A3011 RMK A01 T02720181  RH  058%=      5-min Rain = 0
KPD2 140408Z 16004KT 27/18 A3011 RMK A01 T02710180  RH  058%=      5-min Rain = 0
KPD2 140409Z 15004KT 27/18 A3011 RMK A01 T02700180  RH  058%=      5-min Rain = 0
KPD2 140410Z 16004KT 27/18 A3012 RMK A01 T02690180  RH  058%=      5-min Rain = 0
KPD2 140411Z 15005KT 27/18 A3012 RMK A01 T02690180  RH  058%=      5-min Rain = 0
KPD2 140412Z 15004KT 27/18 A3012 RMK A01 T02680180  RH  058%=      5-min Rain = 0
KPD2 140413Z 15004KT 27/18 A3012 RMK A01 T02680180  RH  058%=      5-min Rain = 0
KPD2 140414Z 16005KT 27/18 A3012 RMK A01 T02680180  RH  059%=      5-min Rain = 0
KPD2 140415Z 15004KT 27/18 A3012 RMK A01 T02680180  RH  059%=      5-min Rain = 0
KPD2 140416Z 15004KT 27/18 A3012 RMK A01 T02680180  RH  059%=      5-min Rain = 0
KPD2 140417Z 15004KT 27/18 A3012 RMK A01 T02670180  RH  059%=      5-min Rain = 0
KPD2 140418Z 14003KT 27/18 A3012 RMK A01 T02670181  RH  059%=      5-min Rain = 0
KPD2 140419Z 14003KT 27/18 A3013 RMK A01 T02670180  RH  059%=      5-min Rain = 0
KPD2 140420Z 15003KT 27/18 A3013 RMK A01 T02670181  RH  059%=      5-min Rain = 0
KPD2 140421Z 15002KT 27/18 A3013 RMK A01 T02670181  RH  059%=      5-min Rain = 0
KPD2 140422Z 15004KT 27/18 A3013 RMK A01 T02670181  RH  059%=      5-min Rain = 0
KPD2 140423Z 15004KT 27/18 A3013 RMK A01 T02660181  RH  059%=      5-min Rain = 0
KPD2 140424Z 15004KT 27/18 A3013 RMK A01 T02660181  RH  059%=      5-min Rain = 0
KPD2 140425Z 16004KT 27/18 A3013 RMK A01 T02660181  RH  060%=      5-min Rain = 0
KPD2 140426Z 17005KT 27/18 A3013 RMK A01 T02660181  RH  060%=      5-min Rain = 0
KPD2 140427Z 17004KT 27/18 A3013 RMK A01 T02660181  RH  060%=      5-min Rain = 0
KPD2 140428Z 16005KT 27/18 A3013 RMK A01 T02660181  RH  060%=      5-min Rain = 0
KPD2 140429Z 16003KT 27/18 A3013 RMK A01 T02660181  RH  060%=      5-min Rain = 0
KPD2 140430Z 17004KT 27/18 A3013 RMK A01 T02660181  RH  060%=      5-min Rain = 0
KPD2 140431Z 16004KT 27/18 A3013 RMK A01 T02660181  RH  060%=      5-min Rain = 0
KPD2 140432Z 16004KT 27/18 A3013 RMK A01 T02660181  RH  060%=      5-min Rain = 0
KPD2 140433Z 16004KT 27/18 A3013 RMK A01 T02650181  RH  060%=      5-min Rain = 0
KPD2 140434Z 16005KT 27/18 A3013 RMK A01 T02650181  RH  060%=      5-min Rain = 0
KPD2 140435Z 16004KT 27/18 A3013 RMK A01 T02650181  RH  060%=      5-min Rain = 0
KPD2 140436Z 16005KT 27/18 A3013 RMK A01 T02650181  RH  060%=      5-min Rain = 0
KPD2 140437Z 16005KT 27/18 A3013 RMK A01 T02650180  RH  060%=      5-min Rain = 0
KPD2 140438Z 16004KT 27/18 A3013 RMK A01 T02650181  RH  060%=      5-min Rain = 0
KPD2 140439Z 16005KT 27/18 A3013 RMK A01 T02650181  RH  060%=      5-min Rain = 0
KPD2 140440Z 16005KT 26/18 A3013 RMK A01 T02640180  RH  060%=      5-min Rain = 0
KPD2 140441Z 16005KT 26/18 A3013 RMK A01 T02640181  RH  060%=      5-min Rain = 0
KPD2 140442Z 15005KT 26/18 A3013 RMK A01 T02640181  RH  060%=      5-min Rain = 0
KPD2 140443Z 16005KT 26/18 A3013 RMK A01 T02630181  RH  060%=      5-min Rain = 0
KPD2 140444Z 16006KT 26/18 A3014 RMK A01 T02630181  RH  060%=      5-min Rain = 0
KPD2 140445Z 15005KT 26/18 A3014 RMK A01 T02630181  RH  061%=      5-min Rain = 0
KPD2 140446Z 15005KT 26/18 A3014 RMK A01 T02630181  RH  061%=      5-min Rain = 0
KPD2 140447Z 15004KT 26/18 A3014 RMK A01 T02620181  RH  061%=      5-min Rain = 0
KPD2 140448Z 15005KT 26/18 A3014 RMK A01 T02620181  RH  061%=      5-min Rain = 0
KPD2 140449Z 16005KT 26/18 A3014 RMK A01 T02620181  RH  061%=      5-min Rain = 0
KPD2 140450Z 15005KT 26/18 A3014 RMK A01 T02620181  RH  061%=      5-min Rain = 0
KPD2 140451Z 15004KT 26/18 A3014 RMK A01 T02620181  RH  061%=      5-min Rain = 0
KPD2 140452Z 14005KT 26/18 A3014 RMK A01 T02620180  RH  061%=      5-min Rain = 0
KPD2 140453Z 14005KT 26/18 A3014 RMK A01 T02620181  RH  061%=      5-min Rain = 0
KPD2 140454Z 14006KT 26/18 A3014 RMK A01 T02620180  RH  061%=      5-min Rain = 0
KPD2 140455Z 13005KT 26/18 A3014 RMK A01 T02630181  RH  061%=      5-min Rain = 0
KPD2 140456Z 14005KT 26/18 A3014 RMK A01 T02630180  RH  060%=      5-min Rain = 0
KPD2 140457Z 14006KT 26/18 A3014 RMK A01 T02640181  RH  060%=      5-min Rain = 0
KPD2 140458Z 14005KT 27/18 A3014 RMK A01 T02650181  RH  060%=      5-min Rain = 0
KPD2 140459Z 15003KT 26/18 A3014 RMK A01 T02640181  RH  060%=      5-min Rain = 0

Page generated in 0.12 seconds.